<?xml version="1.0" encoding="UTF-8" standalone="no" ?>
<gpx xmlns="http://www.topografix.com/GPX/1/1" xmlns:xsi="http://www.w3.org/2001/XMLSchema-instance" xsi:schemaLocation="http://www.topografix.com/GPX/1/1 http://www.topografix.com/GPX/1/1/gpx.xsd" version="1.1" creator="VisuGPX - https://www.visugpx.com">
  <metadata>
    <name>StAndreEaux_Autour_8-21km</name>
    <desc><![CDATA[gnerando idor:7129608_7129617_7129633_9104519_]]></desc>
  </metadata>
  <trk>
    <name><![CDATA[StAndreEaux_TerreBriere_21km-9104519]]></name>
    <extensions>
      <line xmlns="http://www.topografix.com/GPX/gpx_style/0/2">
        <color>0000FF</color>
        <width>4</width>
      </line>
    </extensions>
    <trkseg>
      <trkpt lat="47.31967" lon="-2.30129">
        <ele>12</ele>
        <time>2023-11-12T07:01:14Z</time>
      </trkpt>
      <trkpt lat="47.3198" lon="-2.30169">
        <ele>12</ele>
        <time>2023-11-12T07:01:54Z</time>
      </trkpt>
      <trkpt lat="47.31958" lon="-2.30216">
        <ele>13</ele>
        <time>2023-11-12T07:02:46Z</time>
      </trkpt>
      <trkpt lat="47.3197" lon="-2.30262">
        <ele>13</ele>
        <time>2023-11-12T07:03:30Z</time>
      </trkpt>
      <trkpt lat="47.31969" lon="-2.30317">
        <ele>14</ele>
        <time>2023-11-12T07:04:20Z</time>
      </trkpt>
      <trkpt lat="47.31984" lon="-2.30337">
        <ele>15</ele>
        <time>2023-11-12T07:04:47Z</time>
      </trkpt>
      <trkpt lat="47.32003" lon="-2.30389">
        <ele>16</ele>
        <time>2023-11-12T07:05:41Z</time>
      </trkpt>
      <trkpt lat="47.32006" lon="-2.30519">
        <ele>16</ele>
        <time>2023-11-12T07:07:38Z</time>
      </trkpt>
      <trkpt lat="47.3202" lon="-2.3058">
        <ele>14</ele>
        <time>2023-11-12T07:08:37Z</time>
      </trkpt>
      <trkpt lat="47.32016" lon="-2.30705">
        <ele>14</ele>
        <time>2023-11-12T07:10:30Z</time>
      </trkpt>
      <trkpt lat="47.31967" lon="-2.30801">
        <ele>15</ele>
        <time>2023-11-12T07:12:18Z</time>
      </trkpt>
      <trkpt lat="47.32038" lon="-2.30792">
        <ele>13</ele>
        <time>2023-11-12T07:13:54Z</time>
      </trkpt>
      <trkpt lat="47.32057" lon="-2.30793">
        <ele>13</ele>
        <time>2023-11-12T07:14:19Z</time>
      </trkpt>
      <trkpt lat="47.32092" lon="-2.30806">
        <ele>12</ele>
        <time>2023-11-12T07:15:07Z</time>
      </trkpt>
      <trkpt lat="47.32111" lon="-2.3081">
        <ele>12</ele>
        <time>2023-11-12T07:15:33Z</time>
      </trkpt>
      <trkpt lat="47.32128" lon="-2.30819">
        <ele>13</ele>
        <time>2023-11-12T07:15:57Z</time>
      </trkpt>
      <trkpt lat="47.32165" lon="-2.30833">
        <ele>13</ele>
        <time>2023-11-12T07:16:48Z</time>
      </trkpt>
      <trkpt lat="47.32216" lon="-2.30868">
        <ele>13</ele>
        <time>2023-11-12T07:18:03Z</time>
      </trkpt>
      <trkpt lat="47.3223" lon="-2.30884">
        <ele>13</ele>
        <time>2023-11-12T07:18:26Z</time>
      </trkpt>
      <trkpt lat="47.32235" lon="-2.30912">
        <ele>13</ele>
        <time>2023-11-12T07:18:53Z</time>
      </trkpt>
      <trkpt lat="47.32244" lon="-2.30937">
        <ele>13</ele>
        <time>2023-11-12T07:19:18Z</time>
      </trkpt>
      <trkpt lat="47.32262" lon="-2.30939">
        <ele>13</ele>
        <time>2023-11-12T07:19:42Z</time>
      </trkpt>
      <trkpt lat="47.3228" lon="-2.30936">
        <ele>13</ele>
        <time>2023-11-12T07:20:06Z</time>
      </trkpt>
      <trkpt lat="47.32317" lon="-2.30936">
        <ele>14</ele>
        <time>2023-11-12T07:20:56Z</time>
      </trkpt>
      <trkpt lat="47.32353" lon="-2.30932">
        <ele>13</ele>
        <time>2023-11-12T07:21:44Z</time>
      </trkpt>
      <trkpt lat="47.32409" lon="-2.3093">
        <ele>11</ele>
        <time>2023-11-12T07:22:59Z</time>
      </trkpt>
      <trkpt lat="47.32445" lon="-2.30922">
        <ele>11</ele>
        <time>2023-11-12T07:23:47Z</time>
      </trkpt>
      <trkpt lat="47.32519" lon="-2.30919">
        <ele>12</ele>
        <time>2023-11-12T07:25:26Z</time>
      </trkpt>
      <trkpt lat="47.32538" lon="-2.30917">
        <ele>12</ele>
        <time>2023-11-12T07:25:52Z</time>
      </trkpt>
      <trkpt lat="47.32556" lon="-2.30912">
        <ele>13</ele>
        <time>2023-11-12T07:26:16Z</time>
      </trkpt>
      <trkpt lat="47.32568" lon="-2.30933">
        <ele>13</ele>
        <time>2023-11-12T07:26:41Z</time>
      </trkpt>
      <trkpt lat="47.32567" lon="-2.31014">
        <ele>12</ele>
        <time>2023-11-12T07:27:54Z</time>
      </trkpt>
      <trkpt lat="47.3257" lon="-2.31041">
        <ele>12</ele>
        <time>2023-11-12T07:28:19Z</time>
      </trkpt>
      <trkpt lat="47.32576" lon="-2.31066">
        <ele>11</ele>
        <time>2023-11-12T07:28:43Z</time>
      </trkpt>
      <trkpt lat="47.32565" lon="-2.31176">
        <ele>10</ele>
        <time>2023-11-12T07:30:23Z</time>
      </trkpt>
      <trkpt lat="47.32569" lon="-2.31204">
        <ele>10</ele>
        <time>2023-11-12T07:30:49Z</time>
      </trkpt>
      <trkpt lat="47.32578" lon="-2.31228">
        <ele>10</ele>
        <time>2023-11-12T07:31:14Z</time>
      </trkpt>
      <trkpt lat="47.32574" lon="-2.31256">
        <ele>10</ele>
        <time>2023-11-12T07:31:40Z</time>
      </trkpt>
      <trkpt lat="47.32571" lon="-2.31311">
        <ele>9</ele>
        <time>2023-11-12T07:32:30Z</time>
      </trkpt>
      <trkpt lat="47.3256" lon="-2.31333">
        <ele>9</ele>
        <time>2023-11-12T07:32:55Z</time>
      </trkpt>
      <trkpt lat="47.32555" lon="-2.31387">
        <ele>9</ele>
        <time>2023-11-12T07:33:44Z</time>
      </trkpt>
      <trkpt lat="47.3255" lon="-2.31413">
        <ele>9</ele>
        <time>2023-11-12T07:34:08Z</time>
      </trkpt>
      <trkpt lat="47.3256" lon="-2.31492">
        <ele>10</ele>
        <time>2023-11-12T07:35:21Z</time>
      </trkpt>
      <trkpt lat="47.32558" lon="-2.31547">
        <ele>10</ele>
        <time>2023-11-12T07:36:11Z</time>
      </trkpt>
      <trkpt lat="47.3256" lon="-2.31575">
        <ele>10</ele>
        <time>2023-11-12T07:36:36Z</time>
      </trkpt>
      <trkpt lat="47.3255" lon="-2.31597">
        <ele>10</ele>
        <time>2023-11-12T07:37:00Z</time>
      </trkpt>
      <trkpt lat="47.32524" lon="-2.31638">
        <ele>10</ele>
        <time>2023-11-12T07:37:51Z</time>
      </trkpt>
      <trkpt lat="47.3251" lon="-2.31655">
        <ele>11</ele>
        <time>2023-11-12T07:38:15Z</time>
      </trkpt>
      <trkpt lat="47.32507" lon="-2.31681">
        <ele>11</ele>
        <time>2023-11-12T07:38:39Z</time>
      </trkpt>
      <trkpt lat="47.32508" lon="-2.31709">
        <ele>10</ele>
        <time>2023-11-12T07:39:05Z</time>
      </trkpt>
      <trkpt lat="47.32521" lon="-2.31842">
        <ele>10</ele>
        <time>2023-11-12T07:41:06Z</time>
      </trkpt>
      <trkpt lat="47.32506" lon="-2.31976">
        <ele>9</ele>
        <time>2023-11-12T07:43:09Z</time>
      </trkpt>
      <trkpt lat="47.32499" lon="-2.32086">
        <ele>10</ele>
        <time>2023-11-12T07:44:49Z</time>
      </trkpt>
      <trkpt lat="47.32516" lon="-2.32097">
        <ele>9</ele>
        <time>2023-11-12T07:45:14Z</time>
      </trkpt>
      <trkpt lat="47.32535" lon="-2.32095">
        <ele>9</ele>
        <time>2023-11-12T07:45:39Z</time>
      </trkpt>
      <trkpt lat="47.32572" lon="-2.32097">
        <ele>9</ele>
        <time>2023-11-12T07:46:29Z</time>
      </trkpt>
      <trkpt lat="47.32585" lon="-2.32116">
        <ele>9</ele>
        <time>2023-11-12T07:46:53Z</time>
      </trkpt>
      <trkpt lat="47.32583" lon="-2.32145">
        <ele>8</ele>
        <time>2023-11-12T07:47:19Z</time>
      </trkpt>
      <trkpt lat="47.32577" lon="-2.32172">
        <ele>8</ele>
        <time>2023-11-12T07:47:45Z</time>
      </trkpt>
      <trkpt lat="47.32537" lon="-2.32294">
        <ele>8</ele>
        <time>2023-11-12T07:49:48Z</time>
      </trkpt>
      <trkpt lat="47.32543" lon="-2.3232">
        <ele>8</ele>
        <time>2023-11-12T07:50:12Z</time>
      </trkpt>
      <trkpt lat="47.3258" lon="-2.32312">
        <ele>8</ele>
        <time>2023-11-12T07:51:02Z</time>
      </trkpt>
      <trkpt lat="47.32617" lon="-2.32309">
        <ele>7</ele>
        <time>2023-11-12T07:51:52Z</time>
      </trkpt>
      <trkpt lat="47.32636" lon="-2.32309">
        <ele>7</ele>
        <time>2023-11-12T07:52:17Z</time>
      </trkpt>
      <trkpt lat="47.32654" lon="-2.32313">
        <ele>7</ele>
        <time>2023-11-12T07:52:41Z</time>
      </trkpt>
      <trkpt lat="47.32708" lon="-2.3233">
        <ele>6</ele>
        <time>2023-11-12T07:53:55Z</time>
      </trkpt>
      <trkpt lat="47.32794" lon="-2.3238">
        <ele>5</ele>
        <time>2023-11-12T07:55:58Z</time>
      </trkpt>
      <trkpt lat="47.3281" lon="-2.32392">
        <ele>5</ele>
        <time>2023-11-12T07:56:22Z</time>
      </trkpt>
      <trkpt lat="47.32825" lon="-2.32409">
        <ele>5</ele>
        <time>2023-11-12T07:56:48Z</time>
      </trkpt>
      <trkpt lat="47.32892" lon="-2.32459">
        <ele>5</ele>
        <time>2023-11-12T07:58:28Z</time>
      </trkpt>
      <trkpt lat="47.32918" lon="-2.32533">
        <ele>5</ele>
        <time>2023-11-12T07:59:43Z</time>
      </trkpt>
      <trkpt lat="47.3292" lon="-2.32617">
        <ele>5</ele>
        <time>2023-11-12T08:00:59Z</time>
      </trkpt>
      <trkpt lat="47.32926" lon="-2.32642">
        <ele>5</ele>
        <time>2023-11-12T08:01:23Z</time>
      </trkpt>
      <trkpt lat="47.32944" lon="-2.32646">
        <ele>5</ele>
        <time>2023-11-12T08:01:48Z</time>
      </trkpt>
      <trkpt lat="47.32962" lon="-2.32644">
        <ele>4</ele>
        <time>2023-11-12T08:02:12Z</time>
      </trkpt>
      <trkpt lat="47.32998" lon="-2.32624">
        <ele>3</ele>
        <time>2023-11-12T08:03:03Z</time>
      </trkpt>
      <trkpt lat="47.33015" lon="-2.32635">
        <ele>3</ele>
        <time>2023-11-12T08:03:28Z</time>
      </trkpt>
      <trkpt lat="47.33033" lon="-2.32637">
        <ele>4</ele>
        <time>2023-11-12T08:03:52Z</time>
      </trkpt>
      <trkpt lat="47.33147" lon="-2.32545">
        <ele>6</ele>
        <time>2023-11-12T08:06:45Z</time>
      </trkpt>
      <trkpt lat="47.33162" lon="-2.3253">
        <ele>7</ele>
        <time>2023-11-12T08:07:09Z</time>
      </trkpt>
      <trkpt lat="47.33254" lon="-2.32491">
        <ele>7</ele>
        <time>2023-11-12T08:09:17Z</time>
      </trkpt>
      <trkpt lat="47.33305" lon="-2.32464">
        <ele>6</ele>
        <time>2023-11-12T08:10:29Z</time>
      </trkpt>
      <trkpt lat="47.33323" lon="-2.32459">
        <ele>6</ele>
        <time>2023-11-12T08:10:54Z</time>
      </trkpt>
      <trkpt lat="47.3334" lon="-2.32446">
        <ele>6</ele>
        <time>2023-11-12T08:11:19Z</time>
      </trkpt>
      <trkpt lat="47.33368" lon="-2.32408">
        <ele>6</ele>
        <time>2023-11-12T08:12:10Z</time>
      </trkpt>
      <trkpt lat="47.33401" lon="-2.32383">
        <ele>6</ele>
        <time>2023-11-12T08:13:00Z</time>
      </trkpt>
      <trkpt lat="47.33432" lon="-2.32355">
        <ele>5</ele>
        <time>2023-11-12T08:13:48Z</time>
      </trkpt>
      <trkpt lat="47.33502" lon="-2.32312">
        <ele>5</ele>
        <time>2023-11-12T08:15:29Z</time>
      </trkpt>
      <trkpt lat="47.3352" lon="-2.32305">
        <ele>5</ele>
        <time>2023-11-12T08:15:54Z</time>
      </trkpt>
      <trkpt lat="47.33539" lon="-2.32301">
        <ele>6</ele>
        <time>2023-11-12T08:16:20Z</time>
      </trkpt>
      <trkpt lat="47.33558" lon="-2.32303">
        <ele>6</ele>
        <time>2023-11-12T08:16:45Z</time>
      </trkpt>
      <trkpt lat="47.33593" lon="-2.32291">
        <ele>7</ele>
        <time>2023-11-12T08:17:33Z</time>
      </trkpt>
      <trkpt lat="47.33648" lon="-2.32283">
        <ele>9</ele>
        <time>2023-11-12T08:18:47Z</time>
      </trkpt>
      <trkpt lat="47.33683" lon="-2.32267">
        <ele>9</ele>
        <time>2023-11-12T08:19:36Z</time>
      </trkpt>
      <trkpt lat="47.33751" lon="-2.32222">
        <ele>8</ele>
        <time>2023-11-12T08:21:15Z</time>
      </trkpt>
      <trkpt lat="47.33786" lon="-2.32208">
        <ele>8</ele>
        <time>2023-11-12T08:22:04Z</time>
      </trkpt>
      <trkpt lat="47.33841" lon="-2.32197">
        <ele>8</ele>
        <time>2023-11-12T08:23:18Z</time>
      </trkpt>
      <trkpt lat="47.33879" lon="-2.32196">
        <ele>7</ele>
        <time>2023-11-12T08:24:09Z</time>
      </trkpt>
      <trkpt lat="47.33897" lon="-2.32199">
        <ele>7</ele>
        <time>2023-11-12T08:24:33Z</time>
      </trkpt>
      <trkpt lat="47.33916" lon="-2.32194">
        <ele>7</ele>
        <time>2023-11-12T08:24:58Z</time>
      </trkpt>
      <trkpt lat="47.33934" lon="-2.32194">
        <ele>7</ele>
        <time>2023-11-12T08:25:22Z</time>
      </trkpt>
      <trkpt lat="47.33968" lon="-2.32218">
        <ele>9</ele>
        <time>2023-11-12T08:26:13Z</time>
      </trkpt>
      <trkpt lat="47.33987" lon="-2.32213">
        <ele>9</ele>
        <time>2023-11-12T08:26:39Z</time>
      </trkpt>
      <trkpt lat="47.34025" lon="-2.32211">
        <ele>9</ele>
        <time>2023-11-12T08:27:29Z</time>
      </trkpt>
      <trkpt lat="47.34061" lon="-2.3222">
        <ele>8</ele>
        <time>2023-11-12T08:28:18Z</time>
      </trkpt>
      <trkpt lat="47.34077" lon="-2.32232">
        <ele>8</ele>
        <time>2023-11-12T08:28:42Z</time>
      </trkpt>
      <trkpt lat="47.34087" lon="-2.32256">
        <ele>8</ele>
        <time>2023-11-12T08:29:07Z</time>
      </trkpt>
      <trkpt lat="47.34114" lon="-2.32359">
        <ele>11</ele>
        <time>2023-11-12T08:30:47Z</time>
      </trkpt>
      <trkpt lat="47.34123" lon="-2.32382">
        <ele>11</ele>
        <time>2023-11-12T08:31:11Z</time>
      </trkpt>
      <trkpt lat="47.34152" lon="-2.32483">
        <ele>11</ele>
        <time>2023-11-12T08:32:50Z</time>
      </trkpt>
      <trkpt lat="47.34156" lon="-2.32509">
        <ele>11</ele>
        <time>2023-11-12T08:33:15Z</time>
      </trkpt>
      <trkpt lat="47.34157" lon="-2.32537">
        <ele>11</ele>
        <time>2023-11-12T08:33:40Z</time>
      </trkpt>
      <trkpt lat="47.34154" lon="-2.32592">
        <ele>12</ele>
        <time>2023-11-12T08:34:30Z</time>
      </trkpt>
      <trkpt lat="47.34155" lon="-2.32647">
        <ele>12</ele>
        <time>2023-11-12T08:35:20Z</time>
      </trkpt>
      <trkpt lat="47.34162" lon="-2.327">
        <ele>13</ele>
        <time>2023-11-12T08:36:08Z</time>
      </trkpt>
      <trkpt lat="47.34164" lon="-2.32754">
        <ele>15</ele>
        <time>2023-11-12T08:36:57Z</time>
      </trkpt>
      <trkpt lat="47.34184" lon="-2.32829">
        <ele>11</ele>
        <time>2023-11-12T08:38:10Z</time>
      </trkpt>
      <trkpt lat="47.34196" lon="-2.3285">
        <ele>10</ele>
        <time>2023-11-12T08:38:35Z</time>
      </trkpt>
      <trkpt lat="47.34206" lon="-2.32874">
        <ele>9</ele>
        <time>2023-11-12T08:39:01Z</time>
      </trkpt>
      <trkpt lat="47.34241" lon="-2.32937">
        <ele>7</ele>
        <time>2023-11-12T08:40:14Z</time>
      </trkpt>
      <trkpt lat="47.34249" lon="-2.3296">
        <ele>6</ele>
        <time>2023-11-12T08:40:38Z</time>
      </trkpt>
      <trkpt lat="47.34294" lon="-2.33049">
        <ele>6</ele>
        <time>2023-11-12T08:42:18Z</time>
      </trkpt>
      <trkpt lat="47.34312" lon="-2.33054">
        <ele>6</ele>
        <time>2023-11-12T08:42:42Z</time>
      </trkpt>
      <trkpt lat="47.3433" lon="-2.33051">
        <ele>6</ele>
        <time>2023-11-12T08:43:07Z</time>
      </trkpt>
      <trkpt lat="47.34348" lon="-2.33044">
        <ele>5</ele>
        <time>2023-11-12T08:43:31Z</time>
      </trkpt>
      <trkpt lat="47.34365" lon="-2.33033">
        <ele>5</ele>
        <time>2023-11-12T08:43:56Z</time>
      </trkpt>
      <trkpt lat="47.34363" lon="-2.33005">
        <ele>4</ele>
        <time>2023-11-12T08:44:22Z</time>
      </trkpt>
      <trkpt lat="47.34344" lon="-2.32929">
        <ele>8</ele>
        <time>2023-11-12T08:45:35Z</time>
      </trkpt>
      <trkpt lat="47.34351" lon="-2.32904">
        <ele>9</ele>
        <time>2023-11-12T08:45:59Z</time>
      </trkpt>
      <trkpt lat="47.34381" lon="-2.32869">
        <ele>9</ele>
        <time>2023-11-12T08:46:50Z</time>
      </trkpt>
      <trkpt lat="47.34397" lon="-2.32855">
        <ele>10</ele>
        <time>2023-11-12T08:47:15Z</time>
      </trkpt>
      <trkpt lat="47.3445" lon="-2.32835">
        <ele>9</ele>
        <time>2023-11-12T08:48:28Z</time>
      </trkpt>
      <trkpt lat="47.34456" lon="-2.32809">
        <ele>9</ele>
        <time>2023-11-12T08:48:53Z</time>
      </trkpt>
      <trkpt lat="47.34448" lon="-2.32784">
        <ele>10</ele>
        <time>2023-11-12T08:49:18Z</time>
      </trkpt>
      <trkpt lat="47.34456" lon="-2.32758">
        <ele>10</ele>
        <time>2023-11-12T08:49:44Z</time>
      </trkpt>
      <trkpt lat="47.34472" lon="-2.32743">
        <ele>10</ele>
        <time>2023-11-12T08:50:09Z</time>
      </trkpt>
      <trkpt lat="47.34523" lon="-2.32709">
        <ele>9</ele>
        <time>2023-11-12T08:51:24Z</time>
      </trkpt>
      <trkpt lat="47.34541" lon="-2.327">
        <ele>9</ele>
        <time>2023-11-12T08:51:49Z</time>
      </trkpt>
      <trkpt lat="47.34573" lon="-2.32675">
        <ele>9</ele>
        <time>2023-11-12T08:52:38Z</time>
      </trkpt>
      <trkpt lat="47.34604" lon="-2.32643">
        <ele>8</ele>
        <time>2023-11-12T08:53:28Z</time>
      </trkpt>
      <trkpt lat="47.34613" lon="-2.3262">
        <ele>8</ele>
        <time>2023-11-12T08:53:52Z</time>
      </trkpt>
      <trkpt lat="47.34626" lon="-2.32599">
        <ele>7</ele>
        <time>2023-11-12T08:54:18Z</time>
      </trkpt>
      <trkpt lat="47.34676" lon="-2.32483">
        <ele>7</ele>
        <time>2023-11-12T08:56:22Z</time>
      </trkpt>
      <trkpt lat="47.34685" lon="-2.32459">
        <ele>7</ele>
        <time>2023-11-12T08:56:47Z</time>
      </trkpt>
      <trkpt lat="47.34706" lon="-2.32381">
        <ele>7</ele>
        <time>2023-11-12T08:58:03Z</time>
      </trkpt>
      <trkpt lat="47.34751" lon="-2.3226">
        <ele>6</ele>
        <time>2023-11-12T09:00:08Z</time>
      </trkpt>
      <trkpt lat="47.34762" lon="-2.32239">
        <ele>6</ele>
        <time>2023-11-12T09:00:32Z</time>
      </trkpt>
      <trkpt lat="47.34771" lon="-2.32215">
        <ele>5</ele>
        <time>2023-11-12T09:00:56Z</time>
      </trkpt>
      <trkpt lat="47.34769" lon="-2.32189">
        <ele>4</ele>
        <time>2023-11-12T09:01:20Z</time>
      </trkpt>
      <trkpt lat="47.34773" lon="-2.32161">
        <ele>4</ele>
        <time>2023-11-12T09:01:46Z</time>
      </trkpt>
      <trkpt lat="47.3479" lon="-2.32113">
        <ele>2</ele>
        <time>2023-11-12T09:02:35Z</time>
      </trkpt>
      <trkpt lat="47.34778" lon="-2.32092">
        <ele>2</ele>
        <time>2023-11-12T09:03:00Z</time>
      </trkpt>
      <trkpt lat="47.34762" lon="-2.32106">
        <ele>3</ele>
        <time>2023-11-12T09:03:25Z</time>
      </trkpt>
      <trkpt lat="47.34759" lon="-2.3208">
        <ele>3</ele>
        <time>2023-11-12T09:03:48Z</time>
      </trkpt>
      <trkpt lat="47.34765" lon="-2.32054">
        <ele>2</ele>
        <time>2023-11-12T09:04:13Z</time>
      </trkpt>
      <trkpt lat="47.34779" lon="-2.32038">
        <ele>1</ele>
        <time>2023-11-12T09:04:37Z</time>
      </trkpt>
      <trkpt lat="47.34792" lon="-2.31987">
        <ele>-1</ele>
        <time>2023-11-12T09:05:26Z</time>
      </trkpt>
      <trkpt lat="47.34825" lon="-2.31891">
        <ele>-1</ele>
        <time>2023-11-12T09:07:03Z</time>
      </trkpt>
      <trkpt lat="47.34816" lon="-2.31868">
        <ele>-1</ele>
        <time>2023-11-12T09:07:27Z</time>
      </trkpt>
      <trkpt lat="47.34802" lon="-2.31848">
        <ele>-2</ele>
        <time>2023-11-12T09:07:53Z</time>
      </trkpt>
      <trkpt lat="47.34773" lon="-2.31814">
        <ele>-1</ele>
        <time>2023-11-12T09:08:43Z</time>
      </trkpt>
      <trkpt lat="47.34747" lon="-2.31776">
        <ele>-1</ele>
        <time>2023-11-12T09:09:32Z</time>
      </trkpt>
      <trkpt lat="47.34718" lon="-2.3174">
        <ele>-1</ele>
        <time>2023-11-12T09:10:22Z</time>
      </trkpt>
      <trkpt lat="47.3471" lon="-2.31716">
        <ele>-1</ele>
        <time>2023-11-12T09:10:46Z</time>
      </trkpt>
      <trkpt lat="47.34718" lon="-2.31607">
        <ele>-1</ele>
        <time>2023-11-12T09:12:26Z</time>
      </trkpt>
      <trkpt lat="47.34714" lon="-2.31581">
        <ele>-1</ele>
        <time>2023-11-12T09:12:50Z</time>
      </trkpt>
      <trkpt lat="47.34697" lon="-2.31572">
        <ele>-1</ele>
        <time>2023-11-12T09:13:14Z</time>
      </trkpt>
      <trkpt lat="47.34678" lon="-2.31573">
        <ele>-1</ele>
        <time>2023-11-12T09:13:39Z</time>
      </trkpt>
      <trkpt lat="47.34659" lon="-2.31575">
        <ele>-1</ele>
        <time>2023-11-12T09:14:05Z</time>
      </trkpt>
      <trkpt lat="47.34604" lon="-2.31593">
        <ele>-1</ele>
        <time>2023-11-12T09:15:20Z</time>
      </trkpt>
      <trkpt lat="47.3455" lon="-2.31605">
        <ele>-1</ele>
        <time>2023-11-12T09:16:33Z</time>
      </trkpt>
      <trkpt lat="47.34513" lon="-2.31604">
        <ele>1</ele>
        <time>2023-11-12T09:17:22Z</time>
      </trkpt>
      <trkpt lat="47.34494" lon="-2.31599">
        <ele>1</ele>
        <time>2023-11-12T09:17:48Z</time>
      </trkpt>
      <trkpt lat="47.34464" lon="-2.3157">
        <ele>-1</ele>
        <time>2023-11-12T09:18:36Z</time>
      </trkpt>
      <trkpt lat="47.34449" lon="-2.31551">
        <ele>-1</ele>
        <time>2023-11-12T09:19:02Z</time>
      </trkpt>
      <trkpt lat="47.34403" lon="-2.31504">
        <ele>-1</ele>
        <time>2023-11-12T09:20:17Z</time>
      </trkpt>
      <trkpt lat="47.34293" lon="-2.31405">
        <ele>-2</ele>
        <time>2023-11-12T09:23:09Z</time>
      </trkpt>
      <trkpt lat="47.34281" lon="-2.31383">
        <ele>-2</ele>
        <time>2023-11-12T09:23:34Z</time>
      </trkpt>
      <trkpt lat="47.34231" lon="-2.31344">
        <ele>-2</ele>
        <time>2023-11-12T09:24:50Z</time>
      </trkpt>
      <trkpt lat="47.34199" lon="-2.31315">
        <ele>-1</ele>
        <time>2023-11-12T09:25:40Z</time>
      </trkpt>
      <trkpt lat="47.34108" lon="-2.31223">
        <ele>-1</ele>
        <time>2023-11-12T09:28:07Z</time>
      </trkpt>
      <trkpt lat="47.34009" lon="-2.31147">
        <ele>-1</ele>
        <time>2023-11-12T09:30:36Z</time>
      </trkpt>
      <trkpt lat="47.33992" lon="-2.31137">
        <ele>-1</ele>
        <time>2023-11-12T09:31:00Z</time>
      </trkpt>
      <trkpt lat="47.33938" lon="-2.31115">
        <ele>-1</ele>
        <time>2023-11-12T09:32:15Z</time>
      </trkpt>
      <trkpt lat="47.33901" lon="-2.31113">
        <ele>-1</ele>
        <time>2023-11-12T09:33:04Z</time>
      </trkpt>
      <trkpt lat="47.33884" lon="-2.31122">
        <ele>-1</ele>
        <time>2023-11-12T09:33:29Z</time>
      </trkpt>
      <trkpt lat="47.33848" lon="-2.31134">
        <ele>1</ele>
        <time>2023-11-12T09:34:18Z</time>
      </trkpt>
      <trkpt lat="47.33801" lon="-2.31175">
        <ele>1</ele>
        <time>2023-11-12T09:35:31Z</time>
      </trkpt>
      <trkpt lat="47.33782" lon="-2.31181">
        <ele>1</ele>
        <time>2023-11-12T09:35:57Z</time>
      </trkpt>
      <trkpt lat="47.33766" lon="-2.31195">
        <ele>1</ele>
        <time>2023-11-12T09:36:21Z</time>
      </trkpt>
      <trkpt lat="47.33732" lon="-2.31218">
        <ele>1</ele>
        <time>2023-11-12T09:37:11Z</time>
      </trkpt>
      <trkpt lat="47.33698" lon="-2.31236">
        <ele>1</ele>
        <time>2023-11-12T09:38:00Z</time>
      </trkpt>
      <trkpt lat="47.33661" lon="-2.3125">
        <ele>2</ele>
        <time>2023-11-12T09:38:50Z</time>
      </trkpt>
      <trkpt lat="47.33608" lon="-2.31278">
        <ele>1</ele>
        <time>2023-11-12T09:40:06Z</time>
      </trkpt>
      <trkpt lat="47.33573" lon="-2.31292">
        <ele>1</ele>
        <time>2023-11-12T09:40:54Z</time>
      </trkpt>
      <trkpt lat="47.33555" lon="-2.31283">
        <ele>1</ele>
        <time>2023-11-12T09:41:19Z</time>
      </trkpt>
      <trkpt lat="47.33541" lon="-2.31265">
        <ele>1</ele>
        <time>2023-11-12T09:41:44Z</time>
      </trkpt>
      <trkpt lat="47.3353" lon="-2.31244">
        <ele>1</ele>
        <time>2023-11-12T09:42:08Z</time>
      </trkpt>
      <trkpt lat="47.33515" lon="-2.31227">
        <ele>-1</ele>
        <time>2023-11-12T09:42:33Z</time>
      </trkpt>
      <trkpt lat="47.33478" lon="-2.31167">
        <ele>-2</ele>
        <time>2023-11-12T09:43:47Z</time>
      </trkpt>
      <trkpt lat="47.33454" lon="-2.31123">
        <ele>-1</ele>
        <time>2023-11-12T09:44:38Z</time>
      </trkpt>
      <trkpt lat="47.33445" lon="-2.311">
        <ele>-1</ele>
        <time>2023-11-12T09:45:02Z</time>
      </trkpt>
      <trkpt lat="47.33431" lon="-2.3105">
        <ele>1</ele>
        <time>2023-11-12T09:45:51Z</time>
      </trkpt>
      <trkpt lat="47.3342" lon="-2.31027">
        <ele>1</ele>
        <time>2023-11-12T09:46:16Z</time>
      </trkpt>
      <trkpt lat="47.33412" lon="-2.31002">
        <ele>2</ele>
        <time>2023-11-12T09:46:41Z</time>
      </trkpt>
      <trkpt lat="47.33377" lon="-2.30938">
        <ele>2</ele>
        <time>2023-11-12T09:47:56Z</time>
      </trkpt>
      <trkpt lat="47.3336" lon="-2.30891">
        <ele>1</ele>
        <time>2023-11-12T09:48:44Z</time>
      </trkpt>
      <trkpt lat="47.33358" lon="-2.30835">
        <ele>-1</ele>
        <time>2023-11-12T09:49:35Z</time>
      </trkpt>
      <trkpt lat="47.33353" lon="-2.30808">
        <ele>-1</ele>
        <time>2023-11-12T09:50:00Z</time>
      </trkpt>
      <trkpt lat="47.33327" lon="-2.30735">
        <ele>-1</ele>
        <time>2023-11-12T09:51:14Z</time>
      </trkpt>
      <trkpt lat="47.3333" lon="-2.30708">
        <ele>1</ele>
        <time>2023-11-12T09:51:39Z</time>
      </trkpt>
      <trkpt lat="47.33339" lon="-2.30684">
        <ele>1</ele>
        <time>2023-11-12T09:52:04Z</time>
      </trkpt>
      <trkpt lat="47.33352" lon="-2.30665">
        <ele>1</ele>
        <time>2023-11-12T09:52:28Z</time>
      </trkpt>
      <trkpt lat="47.33348" lon="-2.30638">
        <ele>1</ele>
        <time>2023-11-12T09:52:53Z</time>
      </trkpt>
      <trkpt lat="47.33364" lon="-2.30588">
        <ele>1</ele>
        <time>2023-11-12T09:53:43Z</time>
      </trkpt>
      <trkpt lat="47.33374" lon="-2.30566">
        <ele>1</ele>
        <time>2023-11-12T09:54:07Z</time>
      </trkpt>
      <trkpt lat="47.33363" lon="-2.30545">
        <ele>1</ele>
        <time>2023-11-12T09:54:31Z</time>
      </trkpt>
      <trkpt lat="47.33357" lon="-2.30519">
        <ele>1</ele>
        <time>2023-11-12T09:54:56Z</time>
      </trkpt>
      <trkpt lat="47.33348" lon="-2.30495">
        <ele>1</ele>
        <time>2023-11-12T09:55:21Z</time>
      </trkpt>
      <trkpt lat="47.33343" lon="-2.30468">
        <ele>1</ele>
        <time>2023-11-12T09:55:46Z</time>
      </trkpt>
      <trkpt lat="47.33346" lon="-2.30412">
        <ele>1</ele>
        <time>2023-11-12T09:56:37Z</time>
      </trkpt>
      <trkpt lat="47.3336" lon="-2.30395">
        <ele>1</ele>
        <time>2023-11-12T09:57:01Z</time>
      </trkpt>
      <trkpt lat="47.33378" lon="-2.30388">
        <ele>1</ele>
        <time>2023-11-12T09:57:26Z</time>
      </trkpt>
      <trkpt lat="47.33386" lon="-2.30363">
        <ele>-1</ele>
        <time>2023-11-12T09:57:51Z</time>
      </trkpt>
      <trkpt lat="47.3339" lon="-2.30337">
        <ele>-1</ele>
        <time>2023-11-12T09:58:15Z</time>
      </trkpt>
      <trkpt lat="47.3339" lon="-2.3031">
        <ele>-1</ele>
        <time>2023-11-12T09:58:40Z</time>
      </trkpt>
      <trkpt lat="47.33387" lon="-2.30284">
        <ele>1.7</ele>
        <time>2023-11-12T09:59:04Z</time>
      </trkpt>
      <trkpt lat="47.3339" lon="-2.30257">
        <ele>2</ele>
        <time>2023-11-12T09:59:28Z</time>
      </trkpt>
      <trkpt lat="47.33408" lon="-2.30209">
        <ele>-1</ele>
        <time>2023-11-12T10:00:18Z</time>
      </trkpt>
      <trkpt lat="47.33414" lon="-2.30183">
        <ele>-1</ele>
        <time>2023-11-12T10:00:43Z</time>
      </trkpt>
      <trkpt lat="47.33439" lon="-2.30142">
        <ele>-1</ele>
        <time>2023-11-12T10:01:33Z</time>
      </trkpt>
      <trkpt lat="47.33463" lon="-2.30066">
        <ele>-2</ele>
        <time>2023-11-12T10:02:48Z</time>
      </trkpt>
      <trkpt lat="47.33474" lon="-2.30013">
        <ele>-1</ele>
        <time>2023-11-12T10:03:39Z</time>
      </trkpt>
      <trkpt lat="47.3349" lon="-2.29999">
        <ele>-1</ele>
        <time>2023-11-12T10:04:03Z</time>
      </trkpt>
      <trkpt lat="47.33527" lon="-2.30008">
        <ele>-1</ele>
        <time>2023-11-12T10:04:53Z</time>
      </trkpt>
      <trkpt lat="47.33545" lon="-2.3001">
        <ele>-2</ele>
        <time>2023-11-12T10:05:18Z</time>
      </trkpt>
      <trkpt lat="47.33564" lon="-2.30007">
        <ele>-2</ele>
        <time>2023-11-12T10:05:43Z</time>
      </trkpt>
      <trkpt lat="47.3358" lon="-2.29993">
        <ele>-2</ele>
        <time>2023-11-12T10:06:08Z</time>
      </trkpt>
      <trkpt lat="47.33624" lon="-2.29943">
        <ele>1.5</ele>
        <time>2023-11-12T10:07:22Z</time>
      </trkpt>
      <trkpt lat="47.33649" lon="-2.29903">
        <ele>1</ele>
        <time>2023-11-12T10:08:11Z</time>
      </trkpt>
      <trkpt lat="47.33647" lon="-2.29876">
        <ele>1</ele>
        <time>2023-11-12T10:08:36Z</time>
      </trkpt>
      <trkpt lat="47.33639" lon="-2.29851">
        <ele>1.4</ele>
        <time>2023-11-12T10:09:01Z</time>
      </trkpt>
      <trkpt lat="47.33638" lon="-2.29825">
        <ele>1.7</ele>
        <time>2023-11-12T10:09:24Z</time>
      </trkpt>
      <trkpt lat="47.33655" lon="-2.29813">
        <ele>1.1</ele>
        <time>2023-11-12T10:09:49Z</time>
      </trkpt>
      <trkpt lat="47.33672" lon="-2.29803">
        <ele>1.2</ele>
        <time>2023-11-12T10:10:14Z</time>
      </trkpt>
      <trkpt lat="47.33691" lon="-2.29798">
        <ele>1</ele>
        <time>2023-11-12T10:10:40Z</time>
      </trkpt>
      <trkpt lat="47.33727" lon="-2.29806">
        <ele>1</ele>
        <time>2023-11-12T10:11:28Z</time>
      </trkpt>
      <trkpt lat="47.33764" lon="-2.29811">
        <ele>1</ele>
        <time>2023-11-12T10:12:18Z</time>
      </trkpt>
      <trkpt lat="47.338" lon="-2.29821">
        <ele>1.4</ele>
        <time>2023-11-12T10:13:07Z</time>
      </trkpt>
      <trkpt lat="47.33836" lon="-2.29805">
        <ele>2</ele>
        <time>2023-11-12T10:13:57Z</time>
      </trkpt>
      <trkpt lat="47.33868" lon="-2.2978">
        <ele>-1</ele>
        <time>2023-11-12T10:14:45Z</time>
      </trkpt>
      <trkpt lat="47.33886" lon="-2.29731">
        <ele>-1</ele>
        <time>2023-11-12T10:15:36Z</time>
      </trkpt>
      <trkpt lat="47.3389" lon="-2.29705">
        <ele>2</ele>
        <time>2023-11-12T10:16:00Z</time>
      </trkpt>
      <trkpt lat="47.33908" lon="-2.29658">
        <ele>2.1</ele>
        <time>2023-11-12T10:16:48Z</time>
      </trkpt>
      <trkpt lat="47.33916" lon="-2.29577">
        <ele>2</ele>
        <time>2023-11-12T10:18:03Z</time>
      </trkpt>
      <trkpt lat="47.33915" lon="-2.29549">
        <ele>2</ele>
        <time>2023-11-12T10:18:28Z</time>
      </trkpt>
      <trkpt lat="47.33918" lon="-2.29495">
        <ele>3</ele>
        <time>2023-11-12T10:19:17Z</time>
      </trkpt>
      <trkpt lat="47.33934" lon="-2.29481">
        <ele>3</ele>
        <time>2023-11-12T10:19:42Z</time>
      </trkpt>
      <trkpt lat="47.33945" lon="-2.2946">
        <ele>3</ele>
        <time>2023-11-12T10:20:06Z</time>
      </trkpt>
      <trkpt lat="47.33941" lon="-2.29432">
        <ele>4</ele>
        <time>2023-11-12T10:20:32Z</time>
      </trkpt>
      <trkpt lat="47.33897" lon="-2.29382">
        <ele>5</ele>
        <time>2023-11-12T10:21:46Z</time>
      </trkpt>
      <trkpt lat="47.33809" lon="-2.29307">
        <ele>5</ele>
        <time>2023-11-12T10:24:01Z</time>
      </trkpt>
      <trkpt lat="47.338" lon="-2.29283">
        <ele>5</ele>
        <time>2023-11-12T10:24:26Z</time>
      </trkpt>
      <trkpt lat="47.33801" lon="-2.29255">
        <ele>4</ele>
        <time>2023-11-12T10:24:51Z</time>
      </trkpt>
      <trkpt lat="47.33809" lon="-2.29199">
        <ele>3</ele>
        <time>2023-11-12T10:25:43Z</time>
      </trkpt>
      <trkpt lat="47.33807" lon="-2.29172">
        <ele>3</ele>
        <time>2023-11-12T10:26:08Z</time>
      </trkpt>
      <trkpt lat="47.33809" lon="-2.29145">
        <ele>3</ele>
        <time>2023-11-12T10:26:32Z</time>
      </trkpt>
      <trkpt lat="47.33814" lon="-2.29119">
        <ele>3</ele>
        <time>2023-11-12T10:26:57Z</time>
      </trkpt>
      <trkpt lat="47.33829" lon="-2.29102">
        <ele>3</ele>
        <time>2023-11-12T10:27:22Z</time>
      </trkpt>
      <trkpt lat="47.33863" lon="-2.29079">
        <ele>3</ele>
        <time>2023-11-12T10:28:12Z</time>
      </trkpt>
      <trkpt lat="47.33895" lon="-2.29051">
        <ele>2</ele>
        <time>2023-11-12T10:29:02Z</time>
      </trkpt>
      <trkpt lat="47.33947" lon="-2.2902">
        <ele>2</ele>
        <time>2023-11-12T10:30:16Z</time>
      </trkpt>
      <trkpt lat="47.33961" lon="-2.29004">
        <ele>2</ele>
        <time>2023-11-12T10:30:40Z</time>
      </trkpt>
      <trkpt lat="47.33978" lon="-2.28994">
        <ele>2</ele>
        <time>2023-11-12T10:31:04Z</time>
      </trkpt>
      <trkpt lat="47.33994" lon="-2.28979">
        <ele>2</ele>
        <time>2023-11-12T10:31:30Z</time>
      </trkpt>
      <trkpt lat="47.34047" lon="-2.28951">
        <ele>2</ele>
        <time>2023-11-12T10:32:45Z</time>
      </trkpt>
      <trkpt lat="47.34063" lon="-2.28938">
        <ele>2</ele>
        <time>2023-11-12T10:33:09Z</time>
      </trkpt>
      <trkpt lat="47.34082" lon="-2.28941">
        <ele>3</ele>
        <time>2023-11-12T10:33:35Z</time>
      </trkpt>
      <trkpt lat="47.34118" lon="-2.28926">
        <ele>2</ele>
        <time>2023-11-12T10:34:25Z</time>
      </trkpt>
      <trkpt lat="47.34134" lon="-2.28914">
        <ele>2</ele>
        <time>2023-11-12T10:34:49Z</time>
      </trkpt>
      <trkpt lat="47.34147" lon="-2.28894">
        <ele>2</ele>
        <time>2023-11-12T10:35:14Z</time>
      </trkpt>
      <trkpt lat="47.34166" lon="-2.28891">
        <ele>2</ele>
        <time>2023-11-12T10:35:39Z</time>
      </trkpt>
      <trkpt lat="47.34171" lon="-2.28865">
        <ele>2</ele>
        <time>2023-11-12T10:36:04Z</time>
      </trkpt>
      <trkpt lat="47.34167" lon="-2.28838">
        <ele>2</ele>
        <time>2023-11-12T10:36:29Z</time>
      </trkpt>
      <trkpt lat="47.34173" lon="-2.28784">
        <ele>3</ele>
        <time>2023-11-12T10:37:18Z</time>
      </trkpt>
      <trkpt lat="47.34169" lon="-2.28756">
        <ele>3</ele>
        <time>2023-11-12T10:37:44Z</time>
      </trkpt>
      <trkpt lat="47.34169" lon="-2.2873">
        <ele>3</ele>
        <time>2023-11-12T10:38:07Z</time>
      </trkpt>
      <trkpt lat="47.34175" lon="-2.28704">
        <ele>3</ele>
        <time>2023-11-12T10:38:32Z</time>
      </trkpt>
      <trkpt lat="47.34184" lon="-2.2868">
        <ele>3</ele>
        <time>2023-11-12T10:38:57Z</time>
      </trkpt>
      <trkpt lat="47.34188" lon="-2.28653">
        <ele>3</ele>
        <time>2023-11-12T10:39:22Z</time>
      </trkpt>
      <trkpt lat="47.34199" lon="-2.28629">
        <ele>2</ele>
        <time>2023-11-12T10:39:48Z</time>
      </trkpt>
      <trkpt lat="47.34212" lon="-2.2861">
        <ele>2</ele>
        <time>2023-11-12T10:40:13Z</time>
      </trkpt>
      <trkpt lat="47.34222" lon="-2.28587">
        <ele>1</ele>
        <time>2023-11-12T10:40:37Z</time>
      </trkpt>
      <trkpt lat="47.34213" lon="-2.28611">
        <ele>2</ele>
        <time>2023-11-12T10:41:02Z</time>
      </trkpt>
      <trkpt lat="47.34207" lon="-2.28637">
        <ele>2</ele>
        <time>2023-11-12T10:41:27Z</time>
      </trkpt>
      <trkpt lat="47.34186" lon="-2.28682">
        <ele>3</ele>
        <time>2023-11-12T10:42:16Z</time>
      </trkpt>
      <trkpt lat="47.34172" lon="-2.28699">
        <ele>4</ele>
        <time>2023-11-12T10:42:41Z</time>
      </trkpt>
      <trkpt lat="47.34153" lon="-2.28696">
        <ele>4</ele>
        <time>2023-11-12T10:43:06Z</time>
      </trkpt>
      <trkpt lat="47.34115" lon="-2.28698">
        <ele>3</ele>
        <time>2023-11-12T10:43:57Z</time>
      </trkpt>
      <trkpt lat="47.34105" lon="-2.2872">
        <ele>3</ele>
        <time>2023-11-12T10:44:21Z</time>
      </trkpt>
      <trkpt lat="47.3409" lon="-2.2874">
        <ele>3</ele>
        <time>2023-11-12T10:44:48Z</time>
      </trkpt>
      <trkpt lat="47.34053" lon="-2.28726">
        <ele>3</ele>
        <time>2023-11-12T10:45:39Z</time>
      </trkpt>
      <trkpt lat="47.34037" lon="-2.2871">
        <ele>2</ele>
        <time>2023-11-12T10:46:05Z</time>
      </trkpt>
      <trkpt lat="47.34001" lon="-2.28709">
        <ele>2</ele>
        <time>2023-11-12T10:46:53Z</time>
      </trkpt>
      <trkpt lat="47.33985" lon="-2.28692">
        <ele>2</ele>
        <time>2023-11-12T10:47:19Z</time>
      </trkpt>
      <trkpt lat="47.33983" lon="-2.28638">
        <ele>1</ele>
        <time>2023-11-12T10:48:08Z</time>
      </trkpt>
      <trkpt lat="47.33968" lon="-2.28624">
        <ele>1</ele>
        <time>2023-11-12T10:48:32Z</time>
      </trkpt>
      <trkpt lat="47.33926" lon="-2.28571">
        <ele>1.7</ele>
        <time>2023-11-12T10:49:45Z</time>
      </trkpt>
      <trkpt lat="47.33872" lon="-2.28496">
        <ele>1.6</ele>
        <time>2023-11-12T10:51:24Z</time>
      </trkpt>
      <trkpt lat="47.33842" lon="-2.28466">
        <ele>1</ele>
        <time>2023-11-12T10:52:13Z</time>
      </trkpt>
      <trkpt lat="47.33838" lon="-2.2844">
        <ele>1</ele>
        <time>2023-11-12T10:52:37Z</time>
      </trkpt>
      <trkpt lat="47.33856" lon="-2.28443">
        <ele>4.1</ele>
        <time>2023-11-12T10:53:01Z</time>
      </trkpt>
      <trkpt lat="47.33838" lon="-2.28443">
        <ele>1</ele>
        <time>2023-11-12T10:53:25Z</time>
      </trkpt>
      <trkpt lat="47.33826" lon="-2.28463">
        <ele>1</ele>
        <time>2023-11-12T10:53:49Z</time>
      </trkpt>
      <trkpt lat="47.33808" lon="-2.28471">
        <ele>1</ele>
        <time>2023-11-12T10:54:14Z</time>
      </trkpt>
      <trkpt lat="47.3379" lon="-2.28467">
        <ele>1.8</ele>
        <time>2023-11-12T10:54:38Z</time>
      </trkpt>
      <trkpt lat="47.33807" lon="-2.2848">
        <ele>1</ele>
        <time>2023-11-12T10:55:04Z</time>
      </trkpt>
      <trkpt lat="47.33806" lon="-2.28486">
        <ele>1</ele>
        <time>2023-11-12T10:55:10Z</time>
      </trkpt>
      <trkpt lat="47.33796" lon="-2.28464">
        <ele>1</ele>
        <time>2023-11-12T10:55:34Z</time>
      </trkpt>
      <trkpt lat="47.33811" lon="-2.28484">
        <ele>1</ele>
        <time>2023-11-12T10:56:01Z</time>
      </trkpt>
      <trkpt lat="47.33774" lon="-2.28499">
        <ele>2</ele>
        <time>2023-11-12T10:56:52Z</time>
      </trkpt>
      <trkpt lat="47.33757" lon="-2.28509">
        <ele>2.3</ele>
        <time>2023-11-12T10:57:16Z</time>
      </trkpt>
      <trkpt lat="47.33725" lon="-2.28536">
        <ele>1</ele>
        <time>2023-11-12T10:58:05Z</time>
      </trkpt>
      <trkpt lat="47.33707" lon="-2.28546">
        <ele>1</ele>
        <time>2023-11-12T10:58:31Z</time>
      </trkpt>
      <trkpt lat="47.33687" lon="-2.285">
        <ele>2</ele>
        <time>2023-11-12T10:59:20Z</time>
      </trkpt>
      <trkpt lat="47.3368" lon="-2.28473">
        <ele>1</ele>
        <time>2023-11-12T10:59:47Z</time>
      </trkpt>
      <trkpt lat="47.33658" lon="-2.28429">
        <ele>1</ele>
        <time>2023-11-12T11:00:36Z</time>
      </trkpt>
      <trkpt lat="47.33578" lon="-2.28314">
        <ele>2</ele>
        <time>2023-11-12T11:03:05Z</time>
      </trkpt>
      <trkpt lat="47.33565" lon="-2.28292">
        <ele>2</ele>
        <time>2023-11-12T11:03:31Z</time>
      </trkpt>
      <trkpt lat="47.33557" lon="-2.28267">
        <ele>1</ele>
        <time>2023-11-12T11:03:56Z</time>
      </trkpt>
      <trkpt lat="47.33544" lon="-2.28248">
        <ele>1</ele>
        <time>2023-11-12T11:04:21Z</time>
      </trkpt>
      <trkpt lat="47.33528" lon="-2.28234">
        <ele>1</ele>
        <time>2023-11-12T11:04:46Z</time>
      </trkpt>
      <trkpt lat="47.3351" lon="-2.2824">
        <ele>2</ele>
        <time>2023-11-12T11:05:10Z</time>
      </trkpt>
      <trkpt lat="47.33493" lon="-2.28252">
        <ele>3</ele>
        <time>2023-11-12T11:05:35Z</time>
      </trkpt>
      <trkpt lat="47.33474" lon="-2.28254">
        <ele>3</ele>
        <time>2023-11-12T11:06:01Z</time>
      </trkpt>
      <trkpt lat="47.33465" lon="-2.28231">
        <ele>2</ele>
        <time>2023-11-12T11:06:25Z</time>
      </trkpt>
      <trkpt lat="47.33463" lon="-2.28203">
        <ele>1</ele>
        <time>2023-11-12T11:06:50Z</time>
      </trkpt>
      <trkpt lat="47.33454" lon="-2.28149">
        <ele>1</ele>
        <time>2023-11-12T11:07:41Z</time>
      </trkpt>
      <trkpt lat="47.33447" lon="-2.28067">
        <ele>1.9</ele>
        <time>2023-11-12T11:08:55Z</time>
      </trkpt>
      <trkpt lat="47.33431" lon="-2.27964">
        <ele>2</ele>
        <time>2023-11-12T11:10:31Z</time>
      </trkpt>
      <trkpt lat="47.33412" lon="-2.27802">
        <ele>1</ele>
        <time>2023-11-12T11:13:00Z</time>
      </trkpt>
      <trkpt lat="47.334" lon="-2.27722">
        <ele>2</ele>
        <time>2023-11-12T11:14:14Z</time>
      </trkpt>
      <trkpt lat="47.334" lon="-2.27693">
        <ele>2</ele>
        <time>2023-11-12T11:14:40Z</time>
      </trkpt>
      <trkpt lat="47.33401" lon="-2.27666">
        <ele>2</ele>
        <time>2023-11-12T11:15:04Z</time>
      </trkpt>
      <trkpt lat="47.33406" lon="-2.27639">
        <ele>2</ele>
        <time>2023-11-12T11:15:30Z</time>
      </trkpt>
      <trkpt lat="47.33448" lon="-2.27585">
        <ele>1</ele>
        <time>2023-11-12T11:16:44Z</time>
      </trkpt>
      <trkpt lat="47.33481" lon="-2.27558">
        <ele>2</ele>
        <time>2023-11-12T11:17:34Z</time>
      </trkpt>
      <trkpt lat="47.33495" lon="-2.27541">
        <ele>1.9</ele>
        <time>2023-11-12T11:17:59Z</time>
      </trkpt>
      <trkpt lat="47.33475" lon="-2.27464">
        <ele>1</ele>
        <time>2023-11-12T11:19:13Z</time>
      </trkpt>
      <trkpt lat="47.33473" lon="-2.27437">
        <ele>1</ele>
        <time>2023-11-12T11:19:38Z</time>
      </trkpt>
      <trkpt lat="47.33461" lon="-2.27358">
        <ele>2</ele>
        <time>2023-11-12T11:20:51Z</time>
      </trkpt>
      <trkpt lat="47.33454" lon="-2.27333">
        <ele>2</ele>
        <time>2023-11-12T11:21:16Z</time>
      </trkpt>
      <trkpt lat="47.33422" lon="-2.2715">
        <ele>2</ele>
        <time>2023-11-12T11:24:06Z</time>
      </trkpt>
      <trkpt lat="47.33405" lon="-2.27102">
        <ele>2</ele>
        <time>2023-11-12T11:24:55Z</time>
      </trkpt>
      <trkpt lat="47.33413" lon="-2.27077">
        <ele>2</ele>
        <time>2023-11-12T11:25:20Z</time>
      </trkpt>
      <trkpt lat="47.33395" lon="-2.27071">
        <ele>2</ele>
        <time>2023-11-12T11:25:45Z</time>
      </trkpt>
      <trkpt lat="47.33383" lon="-2.27051">
        <ele>1</ele>
        <time>2023-11-12T11:26:09Z</time>
      </trkpt>
      <trkpt lat="47.33363" lon="-2.27005">
        <ele>1</ele>
        <time>2023-11-12T11:26:59Z</time>
      </trkpt>
      <trkpt lat="47.33361" lon="-2.26977">
        <ele>1.2</ele>
        <time>2023-11-12T11:27:24Z</time>
      </trkpt>
      <trkpt lat="47.33352" lon="-2.26954">
        <ele>1</ele>
        <time>2023-11-12T11:27:48Z</time>
      </trkpt>
      <trkpt lat="47.33351" lon="-2.26927">
        <ele>1.1</ele>
        <time>2023-11-12T11:28:13Z</time>
      </trkpt>
      <trkpt lat="47.33361" lon="-2.2698">
        <ele>1</ele>
        <time>2023-11-12T11:29:02Z</time>
      </trkpt>
      <trkpt lat="47.33347" lon="-2.26997">
        <ele>1</ele>
        <time>2023-11-12T11:29:27Z</time>
      </trkpt>
      <trkpt lat="47.3333" lon="-2.27008">
        <ele>1</ele>
        <time>2023-11-12T11:29:51Z</time>
      </trkpt>
      <trkpt lat="47.33311" lon="-2.27006">
        <ele>1</ele>
        <time>2023-11-12T11:30:17Z</time>
      </trkpt>
      <trkpt lat="47.33296" lon="-2.26991">
        <ele>1</ele>
        <time>2023-11-12T11:30:41Z</time>
      </trkpt>
      <trkpt lat="47.33278" lon="-2.26982">
        <ele>1</ele>
        <time>2023-11-12T11:31:06Z</time>
      </trkpt>
      <trkpt lat="47.3324" lon="-2.2698">
        <ele>1</ele>
        <time>2023-11-12T11:31:57Z</time>
      </trkpt>
      <trkpt lat="47.33222" lon="-2.26986">
        <ele>1</ele>
        <time>2023-11-12T11:32:22Z</time>
      </trkpt>
      <trkpt lat="47.33193" lon="-2.2702">
        <ele>1</ele>
        <time>2023-11-12T11:33:11Z</time>
      </trkpt>
      <trkpt lat="47.33181" lon="-2.27039">
        <ele>1</ele>
        <time>2023-11-12T11:33:35Z</time>
      </trkpt>
      <trkpt lat="47.33148" lon="-2.27106">
        <ele>1.3</ele>
        <time>2023-11-12T11:34:49Z</time>
      </trkpt>
      <trkpt lat="47.33144" lon="-2.27134">
        <ele>1.9</ele>
        <time>2023-11-12T11:35:15Z</time>
      </trkpt>
      <trkpt lat="47.33127" lon="-2.27183">
        <ele>1.3</ele>
        <time>2023-11-12T11:36:05Z</time>
      </trkpt>
      <trkpt lat="47.33083" lon="-2.2727">
        <ele>-1</ele>
        <time>2023-11-12T11:37:43Z</time>
      </trkpt>
      <trkpt lat="47.33064" lon="-2.27315">
        <ele>-1</ele>
        <time>2023-11-12T11:38:31Z</time>
      </trkpt>
      <trkpt lat="47.33042" lon="-2.27359">
        <ele>-1</ele>
        <time>2023-11-12T11:39:21Z</time>
      </trkpt>
      <trkpt lat="47.33014" lon="-2.27431">
        <ele>1</ele>
        <time>2023-11-12T11:40:36Z</time>
      </trkpt>
      <trkpt lat="47.32999" lon="-2.27481">
        <ele>1.3</ele>
        <time>2023-11-12T11:41:25Z</time>
      </trkpt>
      <trkpt lat="47.32971" lon="-2.27553">
        <ele>-1</ele>
        <time>2023-11-12T11:42:40Z</time>
      </trkpt>
      <trkpt lat="47.32955" lon="-2.27632">
        <ele>-1</ele>
        <time>2023-11-12T11:43:55Z</time>
      </trkpt>
      <trkpt lat="47.32956" lon="-2.27658">
        <ele>-1</ele>
        <time>2023-11-12T11:44:18Z</time>
      </trkpt>
      <trkpt lat="47.32964" lon="-2.27711">
        <ele>-1</ele>
        <time>2023-11-12T11:45:08Z</time>
      </trkpt>
      <trkpt lat="47.32972" lon="-2.27736">
        <ele>-1</ele>
        <time>2023-11-12T11:45:33Z</time>
      </trkpt>
      <trkpt lat="47.32981" lon="-2.27759">
        <ele>-1</ele>
        <time>2023-11-12T11:45:57Z</time>
      </trkpt>
      <trkpt lat="47.33004" lon="-2.27802">
        <ele>-1</ele>
        <time>2023-11-12T11:46:46Z</time>
      </trkpt>
      <trkpt lat="47.33017" lon="-2.2782">
        <ele>-1</ele>
        <time>2023-11-12T11:47:10Z</time>
      </trkpt>
      <trkpt lat="47.33032" lon="-2.27836">
        <ele>1.9</ele>
        <time>2023-11-12T11:47:35Z</time>
      </trkpt>
      <trkpt lat="47.33085" lon="-2.27866">
        <ele>1</ele>
        <time>2023-11-12T11:48:50Z</time>
      </trkpt>
      <trkpt lat="47.33101" lon="-2.2788">
        <ele>1</ele>
        <time>2023-11-12T11:49:15Z</time>
      </trkpt>
      <trkpt lat="47.33104" lon="-2.27906">
        <ele>1</ele>
        <time>2023-11-12T11:49:39Z</time>
      </trkpt>
      <trkpt lat="47.3309" lon="-2.27925">
        <ele>1</ele>
        <time>2023-11-12T11:50:04Z</time>
      </trkpt>
      <trkpt lat="47.3308" lon="-2.27948">
        <ele>1</ele>
        <time>2023-11-12T11:50:29Z</time>
      </trkpt>
      <trkpt lat="47.33056" lon="-2.27989">
        <ele>1</ele>
        <time>2023-11-12T11:51:18Z</time>
      </trkpt>
      <trkpt lat="47.33029" lon="-2.28024">
        <ele>1</ele>
        <time>2023-11-12T11:52:06Z</time>
      </trkpt>
      <trkpt lat="47.33018" lon="-2.28047">
        <ele>1</ele>
        <time>2023-11-12T11:52:32Z</time>
      </trkpt>
      <trkpt lat="47.33005" lon="-2.28066">
        <ele>1</ele>
        <time>2023-11-12T11:52:56Z</time>
      </trkpt>
      <trkpt lat="47.32987" lon="-2.28073">
        <ele>1</ele>
        <time>2023-11-12T11:53:21Z</time>
      </trkpt>
      <trkpt lat="47.32968" lon="-2.28071">
        <ele>1</ele>
        <time>2023-11-12T11:53:46Z</time>
      </trkpt>
      <trkpt lat="47.3295" lon="-2.28078">
        <ele>2</ele>
        <time>2023-11-12T11:54:11Z</time>
      </trkpt>
      <trkpt lat="47.32914" lon="-2.28094">
        <ele>2</ele>
        <time>2023-11-12T11:55:01Z</time>
      </trkpt>
      <trkpt lat="47.32898" lon="-2.28106">
        <ele>1</ele>
        <time>2023-11-12T11:55:25Z</time>
      </trkpt>
      <trkpt lat="47.32829" lon="-2.28136">
        <ele>1</ele>
        <time>2023-11-12T11:57:01Z</time>
      </trkpt>
      <trkpt lat="47.32777" lon="-2.28164">
        <ele>1</ele>
        <time>2023-11-12T11:58:15Z</time>
      </trkpt>
      <trkpt lat="47.32761" lon="-2.28176">
        <ele>1.1</ele>
        <time>2023-11-12T11:58:39Z</time>
      </trkpt>
      <trkpt lat="47.32755" lon="-2.28201">
        <ele>1</ele>
        <time>2023-11-12T11:59:03Z</time>
      </trkpt>
      <trkpt lat="47.32754" lon="-2.28228">
        <ele>2</ele>
        <time>2023-11-12T11:59:27Z</time>
      </trkpt>
      <trkpt lat="47.32739" lon="-2.28242">
        <ele>3</ele>
        <time>2023-11-12T11:59:51Z</time>
      </trkpt>
      <trkpt lat="47.32714" lon="-2.28282">
        <ele>3</ele>
        <time>2023-11-12T12:00:40Z</time>
      </trkpt>
      <trkpt lat="47.3265" lon="-2.28336">
        <ele>4</ele>
        <time>2023-11-12T12:02:19Z</time>
      </trkpt>
      <trkpt lat="47.32632" lon="-2.28333">
        <ele>3</ele>
        <time>2023-11-12T12:02:43Z</time>
      </trkpt>
      <trkpt lat="47.32618" lon="-2.28315">
        <ele>3</ele>
        <time>2023-11-12T12:03:08Z</time>
      </trkpt>
      <trkpt lat="47.32607" lon="-2.28292">
        <ele>2</ele>
        <time>2023-11-12T12:03:33Z</time>
      </trkpt>
      <trkpt lat="47.32601" lon="-2.28266">
        <ele>2</ele>
        <time>2023-11-12T12:03:58Z</time>
      </trkpt>
      <trkpt lat="47.32594" lon="-2.28212">
        <ele>1</ele>
        <time>2023-11-12T12:04:48Z</time>
      </trkpt>
      <trkpt lat="47.32573" lon="-2.28135">
        <ele>1</ele>
        <time>2023-11-12T12:06:03Z</time>
      </trkpt>
      <trkpt lat="47.32562" lon="-2.28084">
        <ele>2</ele>
        <time>2023-11-12T12:06:51Z</time>
      </trkpt>
      <trkpt lat="47.32546" lon="-2.27977">
        <ele>1</ele>
        <time>2023-11-12T12:08:30Z</time>
      </trkpt>
      <trkpt lat="47.32515" lon="-2.27847">
        <ele>1</ele>
        <time>2023-11-12T12:10:35Z</time>
      </trkpt>
      <trkpt lat="47.32501" lon="-2.2783">
        <ele>1</ele>
        <time>2023-11-12T12:10:59Z</time>
      </trkpt>
      <trkpt lat="47.32484" lon="-2.27818">
        <ele>1.3</ele>
        <time>2023-11-12T12:11:24Z</time>
      </trkpt>
      <trkpt lat="47.32465" lon="-2.27813">
        <ele>1.6</ele>
        <time>2023-11-12T12:11:50Z</time>
      </trkpt>
      <trkpt lat="47.32447" lon="-2.27817">
        <ele>1.4</ele>
        <time>2023-11-12T12:12:14Z</time>
      </trkpt>
      <trkpt lat="47.3243" lon="-2.27805">
        <ele>1.5</ele>
        <time>2023-11-12T12:12:40Z</time>
      </trkpt>
      <trkpt lat="47.3244" lon="-2.27781">
        <ele>1.9</ele>
        <time>2023-11-12T12:13:05Z</time>
      </trkpt>
      <trkpt lat="47.3243" lon="-2.27729">
        <ele>1.5</ele>
        <time>2023-11-12T12:13:54Z</time>
      </trkpt>
      <trkpt lat="47.32436" lon="-2.27689">
        <ele>1</ele>
        <time>2023-11-12T12:14:31Z</time>
      </trkpt>
      <trkpt lat="47.32426" lon="-2.27646">
        <ele>3</ele>
        <time>2023-11-12T12:15:12Z</time>
      </trkpt>
      <trkpt lat="47.32418" lon="-2.27621">
        <ele>4</ele>
        <time>2023-11-12T12:15:37Z</time>
      </trkpt>
      <trkpt lat="47.32407" lon="-2.27599">
        <ele>4</ele>
        <time>2023-11-12T12:16:02Z</time>
      </trkpt>
      <trkpt lat="47.32401" lon="-2.27573">
        <ele>4</ele>
        <time>2023-11-12T12:16:27Z</time>
      </trkpt>
      <trkpt lat="47.32405" lon="-2.27546">
        <ele>3</ele>
        <time>2023-11-12T12:16:52Z</time>
      </trkpt>
      <trkpt lat="47.32425" lon="-2.27545">
        <ele>3</ele>
        <time>2023-11-12T12:17:18Z</time>
      </trkpt>
      <trkpt lat="47.3246" lon="-2.27563">
        <ele>3</ele>
        <time>2023-11-12T12:18:08Z</time>
      </trkpt>
      <trkpt lat="47.32498" lon="-2.27563">
        <ele>3</ele>
        <time>2023-11-12T12:18:59Z</time>
      </trkpt>
      <trkpt lat="47.32514" lon="-2.27549">
        <ele>2</ele>
        <time>2023-11-12T12:19:23Z</time>
      </trkpt>
      <trkpt lat="47.32532" lon="-2.27541">
        <ele>2</ele>
        <time>2023-11-12T12:19:48Z</time>
      </trkpt>
      <trkpt lat="47.32549" lon="-2.27529">
        <ele>2</ele>
        <time>2023-11-12T12:20:14Z</time>
      </trkpt>
      <trkpt lat="47.32567" lon="-2.27524">
        <ele>1</ele>
        <time>2023-11-12T12:20:38Z</time>
      </trkpt>
      <trkpt lat="47.32565" lon="-2.27497">
        <ele>2</ele>
        <time>2023-11-12T12:21:03Z</time>
      </trkpt>
      <trkpt lat="47.32571" lon="-2.27471">
        <ele>2</ele>
        <time>2023-11-12T12:21:27Z</time>
      </trkpt>
      <trkpt lat="47.32574" lon="-2.27444">
        <ele>2</ele>
        <time>2023-11-12T12:21:52Z</time>
      </trkpt>
      <trkpt lat="47.32571" lon="-2.27416">
        <ele>2</ele>
        <time>2023-11-12T12:22:18Z</time>
      </trkpt>
      <trkpt lat="47.32578" lon="-2.27391">
        <ele>2</ele>
        <time>2023-11-12T12:22:42Z</time>
      </trkpt>
      <trkpt lat="47.32581" lon="-2.27364">
        <ele>3</ele>
        <time>2023-11-12T12:23:07Z</time>
      </trkpt>
      <trkpt lat="47.32584" lon="-2.27254">
        <ele>2</ele>
        <time>2023-11-12T12:24:47Z</time>
      </trkpt>
      <trkpt lat="47.32581" lon="-2.27227">
        <ele>2</ele>
        <time>2023-11-12T12:25:11Z</time>
      </trkpt>
      <trkpt lat="47.32582" lon="-2.272">
        <ele>1</ele>
        <time>2023-11-12T12:25:36Z</time>
      </trkpt>
      <trkpt lat="47.32564" lon="-2.27153">
        <ele>2</ele>
        <time>2023-11-12T12:26:25Z</time>
      </trkpt>
      <trkpt lat="47.32581" lon="-2.27146">
        <ele>1</ele>
        <time>2023-11-12T12:26:48Z</time>
      </trkpt>
      <trkpt lat="47.32592" lon="-2.27123">
        <ele>1</ele>
        <time>2023-11-12T12:27:14Z</time>
      </trkpt>
      <trkpt lat="47.32599" lon="-2.27098">
        <ele>1</ele>
        <time>2023-11-12T12:27:38Z</time>
      </trkpt>
      <trkpt lat="47.32613" lon="-2.27079">
        <ele>1</ele>
        <time>2023-11-12T12:28:04Z</time>
      </trkpt>
      <trkpt lat="47.32624" lon="-2.27058">
        <ele>1</ele>
        <time>2023-11-12T12:28:28Z</time>
      </trkpt>
      <trkpt lat="47.32613" lon="-2.27037">
        <ele>1</ele>
        <time>2023-11-12T12:28:52Z</time>
      </trkpt>
      <trkpt lat="47.32586" lon="-2.26999">
        <ele>1</ele>
        <time>2023-11-12T12:29:41Z</time>
      </trkpt>
      <trkpt lat="47.32574" lon="-2.26978">
        <ele>1</ele>
        <time>2023-11-12T12:30:06Z</time>
      </trkpt>
      <trkpt lat="47.32554" lon="-2.26933">
        <ele>1</ele>
        <time>2023-11-12T12:30:55Z</time>
      </trkpt>
      <trkpt lat="47.32539" lon="-2.26917">
        <ele>1</ele>
        <time>2023-11-12T12:31:20Z</time>
      </trkpt>
      <trkpt lat="47.3253" lon="-2.26893">
        <ele>1</ele>
        <time>2023-11-12T12:31:44Z</time>
      </trkpt>
      <trkpt lat="47.32518" lon="-2.26871">
        <ele>1</ele>
        <time>2023-11-12T12:32:10Z</time>
      </trkpt>
      <trkpt lat="47.32513" lon="-2.26845">
        <ele>1</ele>
        <time>2023-11-12T12:32:34Z</time>
      </trkpt>
      <trkpt lat="47.32512" lon="-2.2679">
        <ele>1.3</ele>
        <time>2023-11-12T12:33:24Z</time>
      </trkpt>
      <trkpt lat="47.3252" lon="-2.26765">
        <ele>1.2</ele>
        <time>2023-11-12T12:33:49Z</time>
      </trkpt>
      <trkpt lat="47.32537" lon="-2.26688">
        <ele>1</ele>
        <time>2023-11-12T12:35:02Z</time>
      </trkpt>
      <trkpt lat="47.32546" lon="-2.26665">
        <ele>1</ele>
        <time>2023-11-12T12:35:26Z</time>
      </trkpt>
      <trkpt lat="47.32575" lon="-2.26564">
        <ele>1</ele>
        <time>2023-11-12T12:37:06Z</time>
      </trkpt>
      <trkpt lat="47.32588" lon="-2.26546">
        <ele>1</ele>
        <time>2023-11-12T12:37:29Z</time>
      </trkpt>
      <trkpt lat="47.32607" lon="-2.265">
        <ele>1</ele>
        <time>2023-11-12T12:38:18Z</time>
      </trkpt>
      <trkpt lat="47.32612" lon="-2.26474">
        <ele>1</ele>
        <time>2023-11-12T12:38:43Z</time>
      </trkpt>
      <trkpt lat="47.32631" lon="-2.26425">
        <ele>1</ele>
        <time>2023-11-12T12:39:34Z</time>
      </trkpt>
      <trkpt lat="47.32697" lon="-2.26377">
        <ele>-1</ele>
        <time>2023-11-12T12:41:12Z</time>
      </trkpt>
      <trkpt lat="47.32731" lon="-2.26358">
        <ele>-1</ele>
        <time>2023-11-12T12:42:00Z</time>
      </trkpt>
      <trkpt lat="47.3275" lon="-2.26355">
        <ele>-1</ele>
        <time>2023-11-12T12:42:26Z</time>
      </trkpt>
      <trkpt lat="47.32731" lon="-2.2636">
        <ele>-1</ele>
        <time>2023-11-12T12:42:52Z</time>
      </trkpt>
      <trkpt lat="47.3268" lon="-2.26395">
        <ele>1</ele>
        <time>2023-11-12T12:44:07Z</time>
      </trkpt>
      <trkpt lat="47.32662" lon="-2.26402">
        <ele>1</ele>
        <time>2023-11-12T12:44:32Z</time>
      </trkpt>
      <trkpt lat="47.32645" lon="-2.26412">
        <ele>1</ele>
        <time>2023-11-12T12:44:56Z</time>
      </trkpt>
      <trkpt lat="47.32631" lon="-2.26432">
        <ele>1</ele>
        <time>2023-11-12T12:45:22Z</time>
      </trkpt>
      <trkpt lat="47.32594" lon="-2.26441">
        <ele>2</ele>
        <time>2023-11-12T12:46:12Z</time>
      </trkpt>
      <trkpt lat="47.32558" lon="-2.26453">
        <ele>2</ele>
        <time>2023-11-12T12:47:01Z</time>
      </trkpt>
      <trkpt lat="47.32507" lon="-2.26483">
        <ele>4</ele>
        <time>2023-11-12T12:48:15Z</time>
      </trkpt>
      <trkpt lat="47.32453" lon="-2.26504">
        <ele>4</ele>
        <time>2023-11-12T12:49:29Z</time>
      </trkpt>
      <trkpt lat="47.32418" lon="-2.26522">
        <ele>5</ele>
        <time>2023-11-12T12:50:19Z</time>
      </trkpt>
      <trkpt lat="47.32345" lon="-2.26544">
        <ele>3</ele>
        <time>2023-11-12T12:51:58Z</time>
      </trkpt>
      <trkpt lat="47.32327" lon="-2.26552">
        <ele>3</ele>
        <time>2023-11-12T12:52:23Z</time>
      </trkpt>
      <trkpt lat="47.32301" lon="-2.26589">
        <ele>3</ele>
        <time>2023-11-12T12:53:11Z</time>
      </trkpt>
      <trkpt lat="47.32284" lon="-2.26602">
        <ele>4</ele>
        <time>2023-11-12T12:53:37Z</time>
      </trkpt>
      <trkpt lat="47.32267" lon="-2.26609">
        <ele>4</ele>
        <time>2023-11-12T12:54:00Z</time>
      </trkpt>
      <trkpt lat="47.32229" lon="-2.26608">
        <ele>5</ele>
        <time>2023-11-12T12:54:51Z</time>
      </trkpt>
      <trkpt lat="47.32211" lon="-2.26605">
        <ele>5</ele>
        <time>2023-11-12T12:55:15Z</time>
      </trkpt>
      <trkpt lat="47.32173" lon="-2.26613">
        <ele>7</ele>
        <time>2023-11-12T12:56:06Z</time>
      </trkpt>
      <trkpt lat="47.32154" lon="-2.26611">
        <ele>7</ele>
        <time>2023-11-12T12:56:32Z</time>
      </trkpt>
      <trkpt lat="47.32136" lon="-2.26606">
        <ele>6</ele>
        <time>2023-11-12T12:56:56Z</time>
      </trkpt>
      <trkpt lat="47.32117" lon="-2.26605">
        <ele>6</ele>
        <time>2023-11-12T12:57:22Z</time>
      </trkpt>
      <trkpt lat="47.321" lon="-2.26597">
        <ele>6</ele>
        <time>2023-11-12T12:57:46Z</time>
      </trkpt>
      <trkpt lat="47.3208" lon="-2.26594">
        <ele>6</ele>
        <time>2023-11-12T12:58:12Z</time>
      </trkpt>
      <trkpt lat="47.32061" lon="-2.26595">
        <ele>6</ele>
        <time>2023-11-12T12:58:38Z</time>
      </trkpt>
      <trkpt lat="47.32042" lon="-2.26601">
        <ele>6</ele>
        <time>2023-11-12T12:59:04Z</time>
      </trkpt>
      <trkpt lat="47.31974" lon="-2.26646">
        <ele>6</ele>
        <time>2023-11-12T13:00:43Z</time>
      </trkpt>
      <trkpt lat="47.31908" lon="-2.26696">
        <ele>7</ele>
        <time>2023-11-12T13:02:22Z</time>
      </trkpt>
      <trkpt lat="47.31843" lon="-2.26753">
        <ele>4</ele>
        <time>2023-11-12T13:04:03Z</time>
      </trkpt>
      <trkpt lat="47.31836" lon="-2.26779">
        <ele>4</ele>
        <time>2023-11-12T13:04:28Z</time>
      </trkpt>
      <trkpt lat="47.31834" lon="-2.26837">
        <ele>4</ele>
        <time>2023-11-12T13:05:21Z</time>
      </trkpt>
      <trkpt lat="47.31837" lon="-2.26864">
        <ele>4</ele>
        <time>2023-11-12T13:05:46Z</time>
      </trkpt>
      <trkpt lat="47.31836" lon="-2.2692">
        <ele>3</ele>
        <time>2023-11-12T13:06:36Z</time>
      </trkpt>
      <trkpt lat="47.31855" lon="-2.27139">
        <ele>6</ele>
        <time>2023-11-12T13:09:56Z</time>
      </trkpt>
      <trkpt lat="47.31853" lon="-2.27166">
        <ele>6</ele>
        <time>2023-11-12T13:10:21Z</time>
      </trkpt>
      <trkpt lat="47.31855" lon="-2.27193">
        <ele>6</ele>
        <time>2023-11-12T13:10:45Z</time>
      </trkpt>
      <trkpt lat="47.31854" lon="-2.27276">
        <ele>6</ele>
        <time>2023-11-12T13:12:00Z</time>
      </trkpt>
      <trkpt lat="47.31856" lon="-2.27303">
        <ele>6</ele>
        <time>2023-11-12T13:12:25Z</time>
      </trkpt>
      <trkpt lat="47.31857" lon="-2.2744">
        <ele>5</ele>
        <time>2023-11-12T13:14:29Z</time>
      </trkpt>
      <trkpt lat="47.31861" lon="-2.27494">
        <ele>5</ele>
        <time>2023-11-12T13:15:18Z</time>
      </trkpt>
      <trkpt lat="47.3186" lon="-2.27522">
        <ele>6</ele>
        <time>2023-11-12T13:15:43Z</time>
      </trkpt>
      <trkpt lat="47.31866" lon="-2.27576">
        <ele>8</ele>
        <time>2023-11-12T13:16:33Z</time>
      </trkpt>
      <trkpt lat="47.31868" lon="-2.2763">
        <ele>8</ele>
        <time>2023-11-12T13:17:22Z</time>
      </trkpt>
      <trkpt lat="47.31864" lon="-2.27823">
        <ele>8</ele>
        <time>2023-11-12T13:20:16Z</time>
      </trkpt>
      <trkpt lat="47.31866" lon="-2.2785">
        <ele>8</ele>
        <time>2023-11-12T13:20:41Z</time>
      </trkpt>
      <trkpt lat="47.31857" lon="-2.27932">
        <ele>9</ele>
        <time>2023-11-12T13:21:56Z</time>
      </trkpt>
      <trkpt lat="47.31859" lon="-2.28015">
        <ele>8</ele>
        <time>2023-11-12T13:23:11Z</time>
      </trkpt>
      <trkpt lat="47.31864" lon="-2.28068">
        <ele>7</ele>
        <time>2023-11-12T13:24:00Z</time>
      </trkpt>
      <trkpt lat="47.31862" lon="-2.28122">
        <ele>6</ele>
        <time>2023-11-12T13:24:49Z</time>
      </trkpt>
      <trkpt lat="47.31864" lon="-2.28149">
        <ele>5</ele>
        <time>2023-11-12T13:25:13Z</time>
      </trkpt>
      <trkpt lat="47.31859" lon="-2.28204">
        <ele>6</ele>
        <time>2023-11-12T13:26:03Z</time>
      </trkpt>
      <trkpt lat="47.31897" lon="-2.28414">
        <ele>5</ele>
        <time>2023-11-12T13:29:20Z</time>
      </trkpt>
      <trkpt lat="47.31898" lon="-2.28442">
        <ele>5</ele>
        <time>2023-11-12T13:29:45Z</time>
      </trkpt>
      <trkpt lat="47.31895" lon="-2.28524">
        <ele>4</ele>
        <time>2023-11-12T13:31:00Z</time>
      </trkpt>
      <trkpt lat="47.31898" lon="-2.2858">
        <ele>4</ele>
        <time>2023-11-12T13:31:50Z</time>
      </trkpt>
      <trkpt lat="47.31882" lon="-2.28744">
        <ele>5</ele>
        <time>2023-11-12T13:34:20Z</time>
      </trkpt>
      <trkpt lat="47.31866" lon="-2.28853">
        <ele>5</ele>
        <time>2023-11-12T13:36:01Z</time>
      </trkpt>
      <trkpt lat="47.31867" lon="-2.2888">
        <ele>5</ele>
        <time>2023-11-12T13:36:26Z</time>
      </trkpt>
      <trkpt lat="47.31859" lon="-2.28989">
        <ele>5</ele>
        <time>2023-11-12T13:38:05Z</time>
      </trkpt>
      <trkpt lat="47.31828" lon="-2.29146">
        <ele>9</ele>
        <time>2023-11-12T13:40:33Z</time>
      </trkpt>
      <trkpt lat="47.31825" lon="-2.29173">
        <ele>9</ele>
        <time>2023-11-12T13:40:58Z</time>
      </trkpt>
      <trkpt lat="47.31827" lon="-2.29282">
        <ele>10</ele>
        <time>2023-11-12T13:42:36Z</time>
      </trkpt>
      <trkpt lat="47.3185" lon="-2.29417">
        <ele>12</ele>
        <time>2023-11-12T13:44:42Z</time>
      </trkpt>
      <trkpt lat="47.31861" lon="-2.29439">
        <ele>12</ele>
        <time>2023-11-12T13:45:07Z</time>
      </trkpt>
      <trkpt lat="47.3188" lon="-2.29437">
        <ele>12</ele>
        <time>2023-11-12T13:45:32Z</time>
      </trkpt>
      <trkpt lat="47.31898" lon="-2.29431">
        <ele>12</ele>
        <time>2023-11-12T13:45:57Z</time>
      </trkpt>
      <trkpt lat="47.31916" lon="-2.29433">
        <ele>12</ele>
        <time>2023-11-12T13:46:21Z</time>
      </trkpt>
      <trkpt lat="47.31933" lon="-2.29427">
        <ele>12</ele>
        <time>2023-11-12T13:46:44Z</time>
      </trkpt>
      <trkpt lat="47.31967" lon="-2.29404">
        <ele>11</ele>
        <time>2023-11-12T13:47:34Z</time>
      </trkpt>
      <trkpt lat="47.31986" lon="-2.29407">
        <ele>11</ele>
        <time>2023-11-12T13:48:00Z</time>
      </trkpt>
      <trkpt lat="47.32004" lon="-2.29402">
        <ele>11</ele>
        <time>2023-11-12T13:48:24Z</time>
      </trkpt>
      <trkpt lat="47.32021" lon="-2.29393">
        <ele>10</ele>
        <time>2023-11-12T13:48:48Z</time>
      </trkpt>
      <trkpt lat="47.32033" lon="-2.29414">
        <ele>10</ele>
        <time>2023-11-12T13:49:13Z</time>
      </trkpt>
      <trkpt lat="47.32031" lon="-2.29441">
        <ele>10</ele>
        <time>2023-11-12T13:49:38Z</time>
      </trkpt>
      <trkpt lat="47.32023" lon="-2.29465">
        <ele>10</ele>
        <time>2023-11-12T13:50:02Z</time>
      </trkpt>
      <trkpt lat="47.32012" lon="-2.29518">
        <ele>11</ele>
        <time>2023-11-12T13:50:52Z</time>
      </trkpt>
      <trkpt lat="47.32026" lon="-2.29568">
        <ele>12</ele>
        <time>2023-11-12T13:51:41Z</time>
      </trkpt>
      <trkpt lat="47.32048" lon="-2.29612">
        <ele>11</ele>
        <time>2023-11-12T13:52:30Z</time>
      </trkpt>
      <trkpt lat="47.32072" lon="-2.29652">
        <ele>11</ele>
        <time>2023-11-12T13:53:19Z</time>
      </trkpt>
      <trkpt lat="47.32076" lon="-2.29678">
        <ele>11</ele>
        <time>2023-11-12T13:53:43Z</time>
      </trkpt>
      <trkpt lat="47.32066" lon="-2.29702">
        <ele>10</ele>
        <time>2023-11-12T13:54:08Z</time>
      </trkpt>
      <trkpt lat="47.32052" lon="-2.29718">
        <ele>10</ele>
        <time>2023-11-12T13:54:32Z</time>
      </trkpt>
      <trkpt lat="47.32039" lon="-2.29739">
        <ele>10</ele>
        <time>2023-11-12T13:54:58Z</time>
      </trkpt>
      <trkpt lat="47.32037" lon="-2.29766">
        <ele>10</ele>
        <time>2023-11-12T13:55:22Z</time>
      </trkpt>
      <trkpt lat="47.32046" lon="-2.29819">
        <ele>10</ele>
        <time>2023-11-12T13:56:12Z</time>
      </trkpt>
      <trkpt lat="47.32058" lon="-2.2984">
        <ele>10</ele>
        <time>2023-11-12T13:56:37Z</time>
      </trkpt>
      <trkpt lat="47.32067" lon="-2.29864">
        <ele>10</ele>
        <time>2023-11-12T13:57:01Z</time>
      </trkpt>
      <trkpt lat="47.32068" lon="-2.29891">
        <ele>11</ele>
        <time>2023-11-12T13:57:26Z</time>
      </trkpt>
      <trkpt lat="47.32057" lon="-2.29914">
        <ele>12</ele>
        <time>2023-11-12T13:57:51Z</time>
      </trkpt>
      <trkpt lat="47.32044" lon="-2.29934">
        <ele>12</ele>
        <time>2023-11-12T13:58:16Z</time>
      </trkpt>
      <trkpt lat="47.31985" lon="-2.30111">
        <ele>12</ele>
        <time>2023-11-12T14:01:15Z</time>
      </trkpt>
      <trkpt lat="47.31975" lon="-2.30115">
        <ele>12</ele>
        <time>2023-11-12T14:01:29Z</time>
      </trkpt>
    </trkseg>
  </trk>
  <trk>
    <name><![CDATA[StAndréEaux_Gascieux_8.3km-7129608]]></name>
    <extensions>
      <line xmlns="http://www.topografix.com/GPX/gpx_style/0/2">
        <color>00FF00</color>
        <width>4</width>
      </line>
    </extensions>
    <trkseg>
      <trkpt lat="47.31422" lon="-2.31124">
        <ele>20</ele>
        <time>2023-11-12T07:01:01Z</time>
      </trkpt>
      <trkpt lat="47.31382" lon="-2.3117">
        <ele>21</ele>
        <time>2023-11-12T07:02:09Z</time>
      </trkpt>
      <trkpt lat="47.31399" lon="-2.3123">
        <ele>22</ele>
        <time>2023-11-12T07:03:08Z</time>
      </trkpt>
      <trkpt lat="47.31318" lon="-2.31322">
        <ele>21</ele>
        <time>2023-11-12T07:05:24Z</time>
      </trkpt>
      <trkpt lat="47.31382" lon="-2.31352">
        <ele>21</ele>
        <time>2023-11-12T07:06:54Z</time>
      </trkpt>
      <trkpt lat="47.31421" lon="-2.31468">
        <ele>23</ele>
        <time>2023-11-12T07:08:51Z</time>
      </trkpt>
      <trkpt lat="47.31463" lon="-2.31777">
        <ele>24</ele>
        <time>2023-11-12T07:13:36Z</time>
      </trkpt>
      <trkpt lat="47.31439" lon="-2.31888">
        <ele>25</ele>
        <time>2023-11-12T07:15:21Z</time>
      </trkpt>
      <trkpt lat="47.31434" lon="-2.31981">
        <ele>24</ele>
        <time>2023-11-12T07:16:46Z</time>
      </trkpt>
      <trkpt lat="47.31526" lon="-2.32195">
        <ele>27</ele>
        <time>2023-11-12T07:20:35Z</time>
      </trkpt>
      <trkpt lat="47.31455" lon="-2.32277">
        <ele>25</ele>
        <time>2023-11-12T07:22:35Z</time>
      </trkpt>
      <trkpt lat="47.31348" lon="-2.32318">
        <ele>23</ele>
        <time>2023-11-12T07:25:03Z</time>
      </trkpt>
      <trkpt lat="47.31268" lon="-2.32395">
        <ele>23</ele>
        <time>2023-11-12T07:27:10Z</time>
      </trkpt>
      <trkpt lat="47.31181" lon="-2.32455">
        <ele>25</ele>
        <time>2023-11-12T07:29:18Z</time>
      </trkpt>
      <trkpt lat="47.31177" lon="-2.32616">
        <ele>27</ele>
        <time>2023-11-12T07:31:44Z</time>
      </trkpt>
      <trkpt lat="47.31207" lon="-2.32727">
        <ele>29</ele>
        <time>2023-11-12T07:33:32Z</time>
      </trkpt>
      <trkpt lat="47.31277" lon="-2.32779">
        <ele>27</ele>
        <time>2023-11-12T07:35:17Z</time>
      </trkpt>
      <trkpt lat="47.31353" lon="-2.32901">
        <ele>26</ele>
        <time>2023-11-12T07:37:47Z</time>
      </trkpt>
      <trkpt lat="47.31239" lon="-2.33144">
        <ele>31</ele>
        <time>2023-11-12T07:42:14Z</time>
      </trkpt>
      <trkpt lat="47.31431" lon="-2.33294">
        <ele>30</ele>
        <time>2023-11-12T07:47:04Z</time>
      </trkpt>
      <trkpt lat="47.31484" lon="-2.33373">
        <ele>31</ele>
        <time>2023-11-12T07:48:45Z</time>
      </trkpt>
      <trkpt lat="47.31732" lon="-2.33249">
        <ele>27</ele>
        <time>2023-11-12T07:54:34Z</time>
      </trkpt>
      <trkpt lat="47.31762" lon="-2.3333">
        <ele>27</ele>
        <time>2023-11-12T07:55:58Z</time>
      </trkpt>
      <trkpt lat="47.31858" lon="-2.33272">
        <ele>22</ele>
        <time>2023-11-12T07:58:16Z</time>
      </trkpt>
      <trkpt lat="47.31881" lon="-2.33212">
        <ele>20</ele>
        <time>2023-11-12T07:59:18Z</time>
      </trkpt>
      <trkpt lat="47.31882" lon="-2.32796">
        <ele>16</ele>
        <time>2023-11-12T08:05:35Z</time>
      </trkpt>
      <trkpt lat="47.31789" lon="-2.32425">
        <ele>24</ele>
        <time>2023-11-12T08:11:33Z</time>
      </trkpt>
      <trkpt lat="47.31914" lon="-2.32431">
        <ele>16</ele>
        <time>2023-11-12T08:14:19Z</time>
      </trkpt>
      <trkpt lat="47.3193" lon="-2.32476">
        <ele>14</ele>
        <time>2023-11-12T08:15:05Z</time>
      </trkpt>
      <trkpt lat="47.31961" lon="-2.32275">
        <ele>13</ele>
        <time>2023-11-12T08:18:12Z</time>
      </trkpt>
      <trkpt lat="47.32051" lon="-2.32202">
        <ele>9</ele>
        <time>2023-11-12T08:20:29Z</time>
      </trkpt>
      <trkpt lat="47.32201" lon="-2.32122">
        <ele>8</ele>
        <time>2023-11-12T08:24:02Z</time>
      </trkpt>
      <trkpt lat="47.32354" lon="-2.32105">
        <ele>9</ele>
        <time>2023-11-12T08:27:27Z</time>
      </trkpt>
      <trkpt lat="47.32505" lon="-2.32101">
        <ele>9</ele>
        <time>2023-11-12T08:30:48Z</time>
      </trkpt>
      <trkpt lat="47.32518" lon="-2.31835">
        <ele>10</ele>
        <time>2023-11-12T08:34:49Z</time>
      </trkpt>
      <trkpt lat="47.32506" lon="-2.31652">
        <ele>11</ele>
        <time>2023-11-12T08:37:36Z</time>
      </trkpt>
      <trkpt lat="47.3256" lon="-2.31594">
        <ele>10</ele>
        <time>2023-11-12T08:39:05Z</time>
      </trkpt>
      <trkpt lat="47.32554" lon="-2.31348">
        <ele>9</ele>
        <time>2023-11-12T08:42:47Z</time>
      </trkpt>
      <trkpt lat="47.32575" lon="-2.31213">
        <ele>10</ele>
        <time>2023-11-12T08:44:53Z</time>
      </trkpt>
      <trkpt lat="47.32567" lon="-2.30908">
        <ele>13</ele>
        <time>2023-11-12T08:49:29Z</time>
      </trkpt>
      <trkpt lat="47.32557" lon="-2.30736">
        <ele>11</ele>
        <time>2023-11-12T08:52:05Z</time>
      </trkpt>
      <trkpt lat="47.325" lon="-2.30427">
        <ele>12</ele>
        <time>2023-11-12T08:56:55Z</time>
      </trkpt>
      <trkpt lat="47.32543" lon="-2.30397">
        <ele>12</ele>
        <time>2023-11-12T08:57:58Z</time>
      </trkpt>
      <trkpt lat="47.32439" lon="-2.29867">
        <ele>16</ele>
        <time>2023-11-12T09:06:17Z</time>
      </trkpt>
      <trkpt lat="47.32381" lon="-2.29912">
        <ele>14</ele>
        <time>2023-11-12T09:07:45Z</time>
      </trkpt>
      <trkpt lat="47.32252" lon="-2.29665">
        <ele>9</ele>
        <time>2023-11-12T09:12:27Z</time>
      </trkpt>
      <trkpt lat="47.32137" lon="-2.29781">
        <ele>9</ele>
        <time>2023-11-12T09:15:33Z</time>
      </trkpt>
      <trkpt lat="47.32156" lon="-2.29848">
        <ele>9</ele>
        <time>2023-11-12T09:16:38Z</time>
      </trkpt>
      <trkpt lat="47.3206" lon="-2.29899">
        <ele>11</ele>
        <time>2023-11-12T09:18:54Z</time>
      </trkpt>
      <trkpt lat="47.32002" lon="-2.30052">
        <ele>11</ele>
        <time>2023-11-12T09:21:33Z</time>
      </trkpt>
      <trkpt lat="47.31962" lon="-2.30195">
        <ele>12</ele>
        <time>2023-11-12T09:23:53Z</time>
      </trkpt>
      <trkpt lat="47.31892" lon="-2.30294">
        <ele>13</ele>
        <time>2023-11-12T09:26:02Z</time>
      </trkpt>
      <trkpt lat="47.31796" lon="-2.30328">
        <ele>14</ele>
        <time>2023-11-12T09:28:14Z</time>
      </trkpt>
      <trkpt lat="47.31738" lon="-2.30412">
        <ele>14</ele>
        <time>2023-11-12T09:30:03Z</time>
      </trkpt>
      <trkpt lat="47.31789" lon="-2.30517">
        <ele>16</ele>
        <time>2023-11-12T09:31:59Z</time>
      </trkpt>
      <trkpt lat="47.31722" lon="-2.30565">
        <ele>16</ele>
        <time>2023-11-12T09:33:39Z</time>
      </trkpt>
      <trkpt lat="47.31716" lon="-2.30646">
        <ele>17</ele>
        <time>2023-11-12T09:34:53Z</time>
      </trkpt>
      <trkpt lat="47.31609" lon="-2.3073">
        <ele>16</ele>
        <time>2023-11-12T09:37:34Z</time>
      </trkpt>
      <trkpt lat="47.31533" lon="-2.30835">
        <ele>17</ele>
        <time>2023-11-12T09:39:53Z</time>
      </trkpt>
      <trkpt lat="47.3154" lon="-2.30878">
        <ele>18</ele>
        <time>2023-11-12T09:40:33Z</time>
      </trkpt>
      <trkpt lat="47.31474" lon="-2.31028">
        <ele>19</ele>
        <time>2023-11-12T09:43:15Z</time>
      </trkpt>
      <trkpt lat="47.31503" lon="-2.31112">
        <ele>19</ele>
        <time>2023-11-12T09:44:40Z</time>
      </trkpt>
      <trkpt lat="47.31423" lon="-2.31125">
        <ele>20</ele>
        <time>2023-11-12T09:46:28Z</time>
      </trkpt>
    </trkseg>
  </trk>
  <trk>
    <name><![CDATA[StAndréEaux_Marland_11km-7129617]]></name>
    <extensions>
      <line xmlns="http://www.topografix.com/GPX/gpx_style/0/2">
        <color>FF0000</color>
        <width>4</width>
      </line>
    </extensions>
    <trkseg>
      <trkpt lat="47.33306" lon="-2.28889">
        <ele>7</ele>
        <time>2023-11-12T07:00:53Z</time>
      </trkpt>
      <trkpt lat="47.3344" lon="-2.28829">
        <ele>3</ele>
        <time>2023-11-12T07:04:00Z</time>
      </trkpt>
      <trkpt lat="47.33504" lon="-2.28683">
        <ele>6</ele>
        <time>2023-11-12T07:06:37Z</time>
      </trkpt>
      <trkpt lat="47.33629" lon="-2.28631">
        <ele>3</ele>
        <time>2023-11-12T07:09:30Z</time>
      </trkpt>
      <trkpt lat="47.33687" lon="-2.28537">
        <ele>2</ele>
        <time>2023-11-12T07:11:25Z</time>
      </trkpt>
      <trkpt lat="47.3353" lon="-2.28249">
        <ele>2</ele>
        <time>2023-11-12T07:17:00Z</time>
      </trkpt>
      <trkpt lat="47.33463" lon="-2.28279">
        <ele>4</ele>
        <time>2023-11-12T07:18:33Z</time>
      </trkpt>
      <trkpt lat="47.33388" lon="-2.27644">
        <ele>2</ele>
        <time>2023-11-12T07:28:16Z</time>
      </trkpt>
      <trkpt lat="47.33492" lon="-2.27537">
        <ele>1.8</ele>
        <time>2023-11-12T07:31:05Z</time>
      </trkpt>
      <trkpt lat="47.3342" lon="-2.27091">
        <ele>2</ele>
        <time>2023-11-12T07:38:00Z</time>
      </trkpt>
      <trkpt lat="47.33356" lon="-2.26988">
        <ele>1</ele>
        <time>2023-11-12T07:40:06Z</time>
      </trkpt>
      <trkpt lat="47.33193" lon="-2.26996">
        <ele>2</ele>
        <time>2023-11-12T07:43:44Z</time>
      </trkpt>
      <trkpt lat="47.33047" lon="-2.27331">
        <ele>-1</ele>
        <time>2023-11-12T07:49:44Z</time>
      </trkpt>
      <trkpt lat="47.32948" lon="-2.27657">
        <ele>-1</ele>
        <time>2023-11-12T07:55:07Z</time>
      </trkpt>
      <trkpt lat="47.3298" lon="-2.2782">
        <ele>-1</ele>
        <time>2023-11-12T07:57:41Z</time>
      </trkpt>
      <trkpt lat="47.33106" lon="-2.27889">
        <ele>1</ele>
        <time>2023-11-12T08:00:40Z</time>
      </trkpt>
      <trkpt lat="47.32998" lon="-2.28065">
        <ele>1</ele>
        <time>2023-11-12T08:04:15Z</time>
      </trkpt>
      <trkpt lat="47.32759" lon="-2.28159">
        <ele>-1</ele>
        <time>2023-11-12T08:09:45Z</time>
      </trkpt>
      <trkpt lat="47.32692" lon="-2.28275">
        <ele>3</ele>
        <time>2023-11-12T08:12:03Z</time>
      </trkpt>
      <trkpt lat="47.32722" lon="-2.28571">
        <ele>4</ele>
        <time>2023-11-12T08:16:33Z</time>
      </trkpt>
      <trkpt lat="47.32794" lon="-2.28708">
        <ele>5</ele>
        <time>2023-11-12T08:19:10Z</time>
      </trkpt>
      <trkpt lat="47.32777" lon="-2.28897">
        <ele>5</ele>
        <time>2023-11-12T08:22:03Z</time>
      </trkpt>
      <trkpt lat="47.32748" lon="-2.29099">
        <ele>5</ele>
        <time>2023-11-12T08:25:09Z</time>
      </trkpt>
      <trkpt lat="47.32788" lon="-2.29232">
        <ele>7</ele>
        <time>2023-11-12T08:27:21Z</time>
      </trkpt>
      <trkpt lat="47.32727" lon="-2.29352">
        <ele>8</ele>
        <time>2023-11-12T08:29:37Z</time>
      </trkpt>
      <trkpt lat="47.32658" lon="-2.2958">
        <ele>13</ele>
        <time>2023-11-12T08:33:23Z</time>
      </trkpt>
      <trkpt lat="47.32562" lon="-2.2976">
        <ele>16</ele>
        <time>2023-11-12T08:36:50Z</time>
      </trkpt>
      <trkpt lat="47.32439" lon="-2.29867">
        <ele>16</ele>
        <time>2023-11-12T08:40:00Z</time>
      </trkpt>
      <trkpt lat="47.32454" lon="-2.29949">
        <ele>15</ele>
        <time>2023-11-12T08:41:17Z</time>
      </trkpt>
      <trkpt lat="47.325" lon="-2.30133">
        <ele>13</ele>
        <time>2023-11-12T08:44:15Z</time>
      </trkpt>
      <trkpt lat="47.32541" lon="-2.30386">
        <ele>12</ele>
        <time>2023-11-12T08:48:10Z</time>
      </trkpt>
      <trkpt lat="47.325" lon="-2.30416">
        <ele>12</ele>
        <time>2023-11-12T08:49:11Z</time>
      </trkpt>
      <trkpt lat="47.32576" lon="-2.30897">
        <ele>12</ele>
        <time>2023-11-12T08:56:38Z</time>
      </trkpt>
      <trkpt lat="47.32559" lon="-2.31193">
        <ele>10</ele>
        <time>2023-11-12T09:01:06Z</time>
      </trkpt>
      <trkpt lat="47.32559" lon="-2.31391">
        <ele>9</ele>
        <time>2023-11-12T09:04:05Z</time>
      </trkpt>
      <trkpt lat="47.32943" lon="-2.31283">
        <ele>4</ele>
        <time>2023-11-12T09:12:47Z</time>
      </trkpt>
      <trkpt lat="47.32902" lon="-2.31082">
        <ele>3</ele>
        <time>2023-11-12T09:15:57Z</time>
      </trkpt>
      <trkpt lat="47.32905" lon="-2.30837">
        <ele>4</ele>
        <time>2023-11-12T09:19:39Z</time>
      </trkpt>
      <trkpt lat="47.3305" lon="-2.30828">
        <ele>1</ele>
        <time>2023-11-12T09:22:52Z</time>
      </trkpt>
      <trkpt lat="47.331" lon="-2.30588">
        <ele>3</ele>
        <time>2023-11-12T09:26:39Z</time>
      </trkpt>
      <trkpt lat="47.33335" lon="-2.30524">
        <ele>2</ele>
        <time>2023-11-12T09:31:58Z</time>
      </trkpt>
      <trkpt lat="47.33324" lon="-2.30399">
        <ele>1</ele>
        <time>2023-11-12T09:33:52Z</time>
      </trkpt>
      <trkpt lat="47.33373" lon="-2.30378">
        <ele>1</ele>
        <time>2023-11-12T09:35:00Z</time>
      </trkpt>
      <trkpt lat="47.33469" lon="-2.29992">
        <ele>1</ele>
        <time>2023-11-12T09:41:12Z</time>
      </trkpt>
      <trkpt lat="47.33556" lon="-2.30004">
        <ele>-2</ele>
        <time>2023-11-12T09:43:09Z</time>
      </trkpt>
      <trkpt lat="47.33652" lon="-2.2988">
        <ele>1</ele>
        <time>2023-11-12T09:45:59Z</time>
      </trkpt>
      <trkpt lat="47.33626" lon="-2.29816">
        <ele>1.7</ele>
        <time>2023-11-12T09:47:07Z</time>
      </trkpt>
      <trkpt lat="47.33687" lon="-2.29768">
        <ele>1</ele>
        <time>2023-11-12T09:48:39Z</time>
      </trkpt>
      <trkpt lat="47.33798" lon="-2.29811">
        <ele>1</ele>
        <time>2023-11-12T09:51:12Z</time>
      </trkpt>
      <trkpt lat="47.3387" lon="-2.29781">
        <ele>-1</ele>
        <time>2023-11-12T09:52:52Z</time>
      </trkpt>
      <trkpt lat="47.33911" lon="-2.29507">
        <ele>3</ele>
        <time>2023-11-12T09:57:06Z</time>
      </trkpt>
      <trkpt lat="47.33952" lon="-2.29412">
        <ele>4</ele>
        <time>2023-11-12T09:58:47Z</time>
      </trkpt>
      <trkpt lat="47.33806" lon="-2.29284">
        <ele>5</ele>
        <time>2023-11-12T10:02:34Z</time>
      </trkpt>
      <trkpt lat="47.33821" lon="-2.2912">
        <ele>3</ele>
        <time>2023-11-12T10:05:04Z</time>
      </trkpt>
      <trkpt lat="47.34091" lon="-2.28906">
        <ele>2</ele>
        <time>2023-11-12T10:11:53Z</time>
      </trkpt>
      <trkpt lat="47.34202" lon="-2.28863">
        <ele>2</ele>
        <time>2023-11-12T10:14:26Z</time>
      </trkpt>
      <trkpt lat="47.34182" lon="-2.28683">
        <ele>3</ele>
        <time>2023-11-12T10:17:11Z</time>
      </trkpt>
      <trkpt lat="47.34112" lon="-2.2867">
        <ele>3</ele>
        <time>2023-11-12T10:18:45Z</time>
      </trkpt>
      <trkpt lat="47.34091" lon="-2.28743">
        <ele>3</ele>
        <time>2023-11-12T10:19:57Z</time>
      </trkpt>
      <trkpt lat="47.33966" lon="-2.28683">
        <ele>2</ele>
        <time>2023-11-12T10:22:52Z</time>
      </trkpt>
      <trkpt lat="47.33833" lon="-2.28438">
        <ele>1</ele>
        <time>2023-11-12T10:27:36Z</time>
      </trkpt>
      <trkpt lat="47.33629" lon="-2.28588">
        <ele>2</ele>
        <time>2023-11-12T10:32:40Z</time>
      </trkpt>
      <trkpt lat="47.33478" lon="-2.28691">
        <ele>6</ele>
        <time>2023-11-12T10:36:22Z</time>
      </trkpt>
      <trkpt lat="47.33417" lon="-2.2885">
        <ele>3</ele>
        <time>2023-11-12T10:39:07Z</time>
      </trkpt>
      <trkpt lat="47.333" lon="-2.28893">
        <ele>7</ele>
        <time>2023-11-12T10:41:48Z</time>
      </trkpt>
    </trkseg>
  </trk>
  <trk>
    <name><![CDATA[StAndré_GrandTour_20.2km-7129633]]></name>
    <extensions>
      <line xmlns="http://www.topografix.com/GPX/gpx_style/0/2">
        <color>00FFFF</color>
        <width>4</width>
      </line>
    </extensions>
    <trkseg>
      <trkpt lat="47.31422" lon="-2.31124">
        <ele>20</ele>
        <time>2023-11-12T07:00:44Z</time>
      </trkpt>
      <trkpt lat="47.31382" lon="-2.3117">
        <ele>21</ele>
        <time>2023-11-12T07:01:52Z</time>
      </trkpt>
      <trkpt lat="47.31399" lon="-2.3123">
        <ele>22</ele>
        <time>2023-11-12T07:02:51Z</time>
      </trkpt>
      <trkpt lat="47.31318" lon="-2.31322">
        <ele>21</ele>
        <time>2023-11-12T07:05:07Z</time>
      </trkpt>
      <trkpt lat="47.31382" lon="-2.31352">
        <ele>21</ele>
        <time>2023-11-12T07:06:37Z</time>
      </trkpt>
      <trkpt lat="47.31421" lon="-2.31468">
        <ele>23</ele>
        <time>2023-11-12T07:08:34Z</time>
      </trkpt>
      <trkpt lat="47.31463" lon="-2.31777">
        <ele>24</ele>
        <time>2023-11-12T07:13:19Z</time>
      </trkpt>
      <trkpt lat="47.31439" lon="-2.31888">
        <ele>25</ele>
        <time>2023-11-12T07:15:04Z</time>
      </trkpt>
      <trkpt lat="47.31434" lon="-2.31981">
        <ele>24</ele>
        <time>2023-11-12T07:16:29Z</time>
      </trkpt>
      <trkpt lat="47.31526" lon="-2.32195">
        <ele>27</ele>
        <time>2023-11-12T07:20:18Z</time>
      </trkpt>
      <trkpt lat="47.31455" lon="-2.32277">
        <ele>25</ele>
        <time>2023-11-12T07:22:18Z</time>
      </trkpt>
      <trkpt lat="47.31348" lon="-2.32318">
        <ele>23</ele>
        <time>2023-11-12T07:24:46Z</time>
      </trkpt>
      <trkpt lat="47.31268" lon="-2.32395">
        <ele>23</ele>
        <time>2023-11-12T07:26:53Z</time>
      </trkpt>
      <trkpt lat="47.31181" lon="-2.32455">
        <ele>25</ele>
        <time>2023-11-12T07:29:01Z</time>
      </trkpt>
      <trkpt lat="47.31177" lon="-2.32616">
        <ele>27</ele>
        <time>2023-11-12T07:31:27Z</time>
      </trkpt>
      <trkpt lat="47.31207" lon="-2.32727">
        <ele>29</ele>
        <time>2023-11-12T07:33:15Z</time>
      </trkpt>
      <trkpt lat="47.31277" lon="-2.32779">
        <ele>27</ele>
        <time>2023-11-12T07:35:00Z</time>
      </trkpt>
      <trkpt lat="47.31353" lon="-2.32901">
        <ele>26</ele>
        <time>2023-11-12T07:37:30Z</time>
      </trkpt>
      <trkpt lat="47.31239" lon="-2.33144">
        <ele>31</ele>
        <time>2023-11-12T07:41:57Z</time>
      </trkpt>
      <trkpt lat="47.31431" lon="-2.33294">
        <ele>30</ele>
        <time>2023-11-12T07:46:47Z</time>
      </trkpt>
      <trkpt lat="47.31484" lon="-2.33373">
        <ele>31</ele>
        <time>2023-11-12T07:48:28Z</time>
      </trkpt>
      <trkpt lat="47.31732" lon="-2.33249">
        <ele>27</ele>
        <time>2023-11-12T07:54:17Z</time>
      </trkpt>
      <trkpt lat="47.31762" lon="-2.3333">
        <ele>27</ele>
        <time>2023-11-12T07:55:41Z</time>
      </trkpt>
      <trkpt lat="47.31858" lon="-2.33272">
        <ele>22</ele>
        <time>2023-11-12T07:57:59Z</time>
      </trkpt>
      <trkpt lat="47.31881" lon="-2.33212">
        <ele>20</ele>
        <time>2023-11-12T07:59:01Z</time>
      </trkpt>
      <trkpt lat="47.31882" lon="-2.32796">
        <ele>16</ele>
        <time>2023-11-12T08:05:18Z</time>
      </trkpt>
      <trkpt lat="47.31789" lon="-2.32425">
        <ele>24</ele>
        <time>2023-11-12T08:11:16Z</time>
      </trkpt>
      <trkpt lat="47.31914" lon="-2.32431">
        <ele>16</ele>
        <time>2023-11-12T08:14:02Z</time>
      </trkpt>
      <trkpt lat="47.3193" lon="-2.32476">
        <ele>14</ele>
        <time>2023-11-12T08:14:48Z</time>
      </trkpt>
      <trkpt lat="47.31961" lon="-2.32275">
        <ele>13</ele>
        <time>2023-11-12T08:17:55Z</time>
      </trkpt>
      <trkpt lat="47.32051" lon="-2.32202">
        <ele>9</ele>
        <time>2023-11-12T08:20:12Z</time>
      </trkpt>
      <trkpt lat="47.32201" lon="-2.32122">
        <ele>8</ele>
        <time>2023-11-12T08:23:45Z</time>
      </trkpt>
      <trkpt lat="47.32354" lon="-2.32105">
        <ele>9</ele>
        <time>2023-11-12T08:27:10Z</time>
      </trkpt>
      <trkpt lat="47.32505" lon="-2.32101">
        <ele>9</ele>
        <time>2023-11-12T08:30:31Z</time>
      </trkpt>
      <trkpt lat="47.32589" lon="-2.32107">
        <ele>9</ele>
        <time>2023-11-12T08:32:23Z</time>
      </trkpt>
      <trkpt lat="47.32525" lon="-2.32333">
        <ele>9</ele>
        <time>2023-11-12T08:36:05Z</time>
      </trkpt>
      <trkpt lat="47.32672" lon="-2.32328">
        <ele>7</ele>
        <time>2023-11-12T08:39:21Z</time>
      </trkpt>
      <trkpt lat="47.32834" lon="-2.32414">
        <ele>5</ele>
        <time>2023-11-12T08:43:11Z</time>
      </trkpt>
      <trkpt lat="47.32899" lon="-2.3247">
        <ele>5</ele>
        <time>2023-11-12T08:44:51Z</time>
      </trkpt>
      <trkpt lat="47.32992" lon="-2.32627">
        <ele>3</ele>
        <time>2023-11-12T08:48:00Z</time>
      </trkpt>
      <trkpt lat="47.33024" lon="-2.32644">
        <ele>4</ele>
        <time>2023-11-12T08:48:45Z</time>
      </trkpt>
      <trkpt lat="47.33168" lon="-2.3253">
        <ele>7</ele>
        <time>2023-11-12T08:52:23Z</time>
      </trkpt>
      <trkpt lat="47.33335" lon="-2.32461">
        <ele>6</ele>
        <time>2023-11-12T08:56:15Z</time>
      </trkpt>
      <trkpt lat="47.33532" lon="-2.32309">
        <ele>6</ele>
        <time>2023-11-12T09:01:11Z</time>
      </trkpt>
      <trkpt lat="47.33818" lon="-2.32202">
        <ele>8</ele>
        <time>2023-11-12T09:07:45Z</time>
      </trkpt>
      <trkpt lat="47.34074" lon="-2.3223">
        <ele>8</ele>
        <time>2023-11-12T09:13:28Z</time>
      </trkpt>
      <trkpt lat="47.34158" lon="-2.32582">
        <ele>11</ele>
        <time>2023-11-12T09:19:05Z</time>
      </trkpt>
      <trkpt lat="47.34163" lon="-2.32811">
        <ele>12</ele>
        <time>2023-11-12T09:22:32Z</time>
      </trkpt>
      <trkpt lat="47.34269" lon="-2.32985">
        <ele>6</ele>
        <time>2023-11-12T09:26:04Z</time>
      </trkpt>
      <trkpt lat="47.3427" lon="-2.33051">
        <ele>6</ele>
        <time>2023-11-12T09:27:04Z</time>
      </trkpt>
      <trkpt lat="47.34355" lon="-2.33017">
        <ele>5</ele>
        <time>2023-11-12T09:29:01Z</time>
      </trkpt>
      <trkpt lat="47.34343" lon="-2.32914">
        <ele>9</ele>
        <time>2023-11-12T09:30:36Z</time>
      </trkpt>
      <trkpt lat="47.34455" lon="-2.32837">
        <ele>9</ele>
        <time>2023-11-12T09:33:21Z</time>
      </trkpt>
      <trkpt lat="47.34451" lon="-2.32738">
        <ele>10</ele>
        <time>2023-11-12T09:34:50Z</time>
      </trkpt>
      <trkpt lat="47.34625" lon="-2.32624">
        <ele>7</ele>
        <time>2023-11-12T09:39:04Z</time>
      </trkpt>
      <trkpt lat="47.34778" lon="-2.32195">
        <ele>4</ele>
        <time>2023-11-12T09:46:23Z</time>
      </trkpt>
      <trkpt lat="47.34731" lon="-2.32118">
        <ele>4</ele>
        <time>2023-11-12T09:47:56Z</time>
      </trkpt>
      <trkpt lat="47.34837" lon="-2.3188">
        <ele>-1</ele>
        <time>2023-11-12T09:52:14Z</time>
      </trkpt>
      <trkpt lat="47.3472" lon="-2.31728">
        <ele>-1</ele>
        <time>2023-11-12T09:55:42Z</time>
      </trkpt>
      <trkpt lat="47.34722" lon="-2.31562">
        <ele>-1</ele>
        <time>2023-11-12T09:58:12Z</time>
      </trkpt>
      <trkpt lat="47.34503" lon="-2.31577">
        <ele>1</ele>
        <time>2023-11-12T10:03:05Z</time>
      </trkpt>
      <trkpt lat="47.34273" lon="-2.31382">
        <ele>-2</ele>
        <time>2023-11-12T10:08:58Z</time>
      </trkpt>
      <trkpt lat="47.33926" lon="-2.31122">
        <ele>-1</ele>
        <time>2023-11-12T10:17:38Z</time>
      </trkpt>
      <trkpt lat="47.33553" lon="-2.31309">
        <ele>1</ele>
        <time>2023-11-12T10:26:24Z</time>
      </trkpt>
      <trkpt lat="47.33354" lon="-2.30904">
        <ele>1</ele>
        <time>2023-11-12T10:33:56Z</time>
      </trkpt>
      <trkpt lat="47.33318" lon="-2.30738">
        <ele>-1</ele>
        <time>2023-11-12T10:36:34Z</time>
      </trkpt>
      <trkpt lat="47.33367" lon="-2.30571">
        <ele>1</ele>
        <time>2023-11-12T10:39:18Z</time>
      </trkpt>
      <trkpt lat="47.33334" lon="-2.30408">
        <ele>1</ele>
        <time>2023-11-12T10:41:52Z</time>
      </trkpt>
      <trkpt lat="47.33377" lon="-2.30374">
        <ele>-1</ele>
        <time>2023-11-12T10:42:57Z</time>
      </trkpt>
      <trkpt lat="47.33395" lon="-2.30217">
        <ele>1</ele>
        <time>2023-11-12T10:45:21Z</time>
      </trkpt>
      <trkpt lat="47.33479" lon="-2.29983">
        <ele>1.1</ele>
        <time>2023-11-12T10:49:21Z</time>
      </trkpt>
      <trkpt lat="47.33567" lon="-2.30002">
        <ele>-2</ele>
        <time>2023-11-12T10:51:19Z</time>
      </trkpt>
      <trkpt lat="47.33648" lon="-2.29897">
        <ele>1</ele>
        <time>2023-11-12T10:53:43Z</time>
      </trkpt>
      <trkpt lat="47.33633" lon="-2.29814">
        <ele>1.5</ele>
        <time>2023-11-12T10:55:01Z</time>
      </trkpt>
      <trkpt lat="47.33683" lon="-2.29781">
        <ele>1</ele>
        <time>2023-11-12T10:56:14Z</time>
      </trkpt>
      <trkpt lat="47.33799" lon="-2.29805">
        <ele>1</ele>
        <time>2023-11-12T10:58:50Z</time>
      </trkpt>
      <trkpt lat="47.3387" lon="-2.29788">
        <ele>-1</ele>
        <time>2023-11-12T11:00:26Z</time>
      </trkpt>
      <trkpt lat="47.33911" lon="-2.29489">
        <ele>3</ele>
        <time>2023-11-12T11:05:02Z</time>
      </trkpt>
      <trkpt lat="47.33952" lon="-2.29417">
        <ele>4</ele>
        <time>2023-11-12T11:06:27Z</time>
      </trkpt>
      <trkpt lat="47.33811" lon="-2.29275">
        <ele>5</ele>
        <time>2023-11-12T11:10:15Z</time>
      </trkpt>
      <trkpt lat="47.33831" lon="-2.29118">
        <ele>3</ele>
        <time>2023-11-12T11:12:39Z</time>
      </trkpt>
      <trkpt lat="47.34039" lon="-2.28957">
        <ele>2</ele>
        <time>2023-11-12T11:17:53Z</time>
      </trkpt>
      <trkpt lat="47.34185" lon="-2.28882">
        <ele>2</ele>
        <time>2023-11-12T11:21:19Z</time>
      </trkpt>
      <trkpt lat="47.3418" lon="-2.28689">
        <ele>3</ele>
        <time>2023-11-12T11:24:14Z</time>
      </trkpt>
      <trkpt lat="47.34106" lon="-2.2867">
        <ele>3</ele>
        <time>2023-11-12T11:25:54Z</time>
      </trkpt>
      <trkpt lat="47.34094" lon="-2.28713">
        <ele>3</ele>
        <time>2023-11-12T11:26:36Z</time>
      </trkpt>
      <trkpt lat="47.33987" lon="-2.28681">
        <ele>2</ele>
        <time>2023-11-12T11:29:02Z</time>
      </trkpt>
      <trkpt lat="47.3384" lon="-2.28447">
        <ele>1</ele>
        <time>2023-11-12T11:33:50Z</time>
      </trkpt>
      <trkpt lat="47.33699" lon="-2.28532">
        <ele>1</ele>
        <time>2023-11-12T11:37:14Z</time>
      </trkpt>
      <trkpt lat="47.33536" lon="-2.28236">
        <ele>1</ele>
        <time>2023-11-12T11:42:59Z</time>
      </trkpt>
      <trkpt lat="47.33468" lon="-2.28292">
        <ele>4</ele>
        <time>2023-11-12T11:44:42Z</time>
      </trkpt>
      <trkpt lat="47.33391" lon="-2.27636">
        <ele>2.1</ele>
        <time>2023-11-12T11:54:45Z</time>
      </trkpt>
      <trkpt lat="47.33495" lon="-2.27515">
        <ele>1.5</ele>
        <time>2023-11-12T11:57:41Z</time>
      </trkpt>
      <trkpt lat="47.3342" lon="-2.27129">
        <ele>2</ele>
        <time>2023-11-12T12:03:44Z</time>
      </trkpt>
      <trkpt lat="47.33364" lon="-2.26979">
        <ele>1.2</ele>
        <time>2023-11-12T12:06:19Z</time>
      </trkpt>
      <trkpt lat="47.33187" lon="-2.27">
        <ele>2</ele>
        <time>2023-11-12T12:10:16Z</time>
      </trkpt>
      <trkpt lat="47.33111" lon="-2.27215">
        <ele>1</ele>
        <time>2023-11-12T12:13:56Z</time>
      </trkpt>
      <trkpt lat="47.32951" lon="-2.27666">
        <ele>-1</ele>
        <time>2023-11-12T12:21:36Z</time>
      </trkpt>
      <trkpt lat="47.32995" lon="-2.27816">
        <ele>-1</ele>
        <time>2023-11-12T12:24:04Z</time>
      </trkpt>
      <trkpt lat="47.33104" lon="-2.27884">
        <ele>1</ele>
        <time>2023-11-12T12:26:42Z</time>
      </trkpt>
      <trkpt lat="47.32992" lon="-2.28067">
        <ele>1</ele>
        <time>2023-11-12T12:30:25Z</time>
      </trkpt>
      <trkpt lat="47.32777" lon="-2.28174">
        <ele>1.3</ele>
        <time>2023-11-12T12:35:28Z</time>
      </trkpt>
      <trkpt lat="47.32765" lon="-2.28211">
        <ele>1</ele>
        <time>2023-11-12T12:36:05Z</time>
      </trkpt>
      <trkpt lat="47.32694" lon="-2.28266">
        <ele>3</ele>
        <time>2023-11-12T12:37:52Z</time>
      </trkpt>
      <trkpt lat="47.32742" lon="-2.28575">
        <ele>4</ele>
        <time>2023-11-12T12:42:38Z</time>
      </trkpt>
      <trkpt lat="47.328" lon="-2.28805">
        <ele>6</ele>
        <time>2023-11-12T12:46:20Z</time>
      </trkpt>
      <trkpt lat="47.32762" lon="-2.29002">
        <ele>5</ele>
        <time>2023-11-12T12:49:26Z</time>
      </trkpt>
      <trkpt lat="47.32751" lon="-2.29127">
        <ele>6</ele>
        <time>2023-11-12T12:51:20Z</time>
      </trkpt>
      <trkpt lat="47.32787" lon="-2.29211">
        <ele>7</ele>
        <time>2023-11-12T12:52:50Z</time>
      </trkpt>
      <trkpt lat="47.32647" lon="-2.29601">
        <ele>13</ele>
        <time>2023-11-12T12:59:29Z</time>
      </trkpt>
      <trkpt lat="47.32442" lon="-2.29861">
        <ele>16</ele>
        <time>2023-11-12T13:05:30Z</time>
      </trkpt>
      <trkpt lat="47.32384" lon="-2.29912">
        <ele>14</ele>
        <time>2023-11-12T13:07:00Z</time>
      </trkpt>
      <trkpt lat="47.32252" lon="-2.29678">
        <ele>9</ele>
        <time>2023-11-12T13:11:35Z</time>
      </trkpt>
      <trkpt lat="47.32249" lon="-2.2967">
        <ele>9</ele>
        <time>2023-11-12T13:11:43Z</time>
      </trkpt>
      <trkpt lat="47.32255" lon="-2.29672">
        <ele>9</ele>
        <time>2023-11-12T13:11:51Z</time>
      </trkpt>
      <trkpt lat="47.3214" lon="-2.29781">
        <ele>9</ele>
        <time>2023-11-12T13:14:54Z</time>
      </trkpt>
      <trkpt lat="47.3216" lon="-2.29854">
        <ele>10</ele>
        <time>2023-11-12T13:16:05Z</time>
      </trkpt>
      <trkpt lat="47.32061" lon="-2.29904">
        <ele>12</ele>
        <time>2023-11-12T13:18:25Z</time>
      </trkpt>
      <trkpt lat="47.31987" lon="-2.30118">
        <ele>12</ele>
        <time>2023-11-12T13:22:02Z</time>
      </trkpt>
      <trkpt lat="47.31924" lon="-2.3026">
        <ele>13</ele>
        <time>2023-11-12T13:24:36Z</time>
      </trkpt>
      <trkpt lat="47.31746" lon="-2.30412">
        <ele>13</ele>
        <time>2023-11-12T13:29:10Z</time>
      </trkpt>
      <trkpt lat="47.31783" lon="-2.30524">
        <ele>16</ele>
        <time>2023-11-12T13:31:03Z</time>
      </trkpt>
      <trkpt lat="47.31711" lon="-2.30558">
        <ele>16</ele>
        <time>2023-11-12T13:32:44Z</time>
      </trkpt>
      <trkpt lat="47.31722" lon="-2.30644">
        <ele>17</ele>
        <time>2023-11-12T13:34:03Z</time>
      </trkpt>
      <trkpt lat="47.31639" lon="-2.30689">
        <ele>16</ele>
        <time>2023-11-12T13:36:01Z</time>
      </trkpt>
      <trkpt lat="47.31545" lon="-2.30846">
        <ele>17</ele>
        <time>2023-11-12T13:39:10Z</time>
      </trkpt>
      <trkpt lat="47.31471" lon="-2.31026">
        <ele>19</ele>
        <time>2023-11-12T13:42:21Z</time>
      </trkpt>
      <trkpt lat="47.315" lon="-2.31112">
        <ele>19</ele>
        <time>2023-11-12T13:43:48Z</time>
      </trkpt>
      <trkpt lat="47.31421" lon="-2.31157">
        <ele>21</ele>
        <time>2023-11-12T13:45:41Z</time>
      </trkpt>
    </trkseg>
  </trk>
</gpx>